Observation data for Fort Chadbourne on 02/11/2019      Previous  Date       Current Mesonet Observations  Soil Data  Daily Summary Page  Observations in Plain Language
KCH1 110600Z 14002KT 08/08 A2998 RMK A01 T00790079  RH  100%=      5-min Rain = 0
KCH1 110601Z 13002KT 08/08 A2998 RMK A01 T00790079  RH  100%=      5-min Rain = 0
KCH1 110602Z 12002KT 08/08 A2998 RMK A01 T00790079  RH  100%=      5-min Rain = 0
KCH1 110603Z 11002KT 08/08 A2998 RMK A01 T00790079  RH  100%=      5-min Rain = 0
KCH1 110604Z 08002KT 08/08 A2997 RMK A01 T00790079  RH  100%=      5-min Rain = 0
KCH1 110605Z 08002KT 08/08 A2997 RMK A01 T00800080  RH  100%=      5-min Rain = 0
KCH1 110606Z 09002KT 08/08 A2997 RMK A01 T00790079  RH  100%=      5-min Rain = 0
KCH1 110607Z 08002KT 08/08 A2997 RMK A01 T00790079  RH  100%=      5-min Rain = 0
KCH1 110608Z 08002KT 08/08 A2997 RMK A01 T00790079  RH  100%=      5-min Rain = 0
KCH1 110609Z 08002KT 08/08 A2997 RMK A01 T00790080  RH  100%=      5-min Rain = 0
KCH1 110610Z 08002KT 08/08 A2997 RMK A01 T00800080  RH  100%=      5-min Rain = 0
KCH1 110611Z 06002KT 08/08 A2997 RMK A01 T00790079  RH  100%=      5-min Rain = 0
KCH1 110612Z 06002KT 08/08 A2997 RMK A01 T00790079  RH  100%=      5-min Rain = 0
KCH1 110613Z 07002KT 08/08 A2997 RMK A01 T00800080  RH  100%=      5-min Rain = 0
KCH1 110614Z 07002KT 08/08 A2997 RMK A01 T00790079  RH  100%=      5-min Rain = 0
KCH1 110615Z 06002KT 08/08 A2997 RMK A01 T00790079  RH  100%=      5-min Rain = 0
KCH1 110616Z 07002KT 08/08 A2997 RMK A01 T00790079  RH  100%=      5-min Rain = 0
KCH1 110617Z 08002KT 08/08 A2997 RMK A01 T00790079  RH  100%=      5-min Rain = 0
KCH1 110618Z 08002KT 08/08 A2997 RMK A01 T00790079  RH  100%=      5-min Rain = 0
KCH1 110619Z 09002KT 08/08 A2996 RMK A01 T00790079  RH  100%=      5-min Rain = 0
KCH1 110620Z 09002KT 08/08 A2996 RMK A01 T00790079  RH  100%=      5-min Rain = 0
KCH1 110621Z 10002KT 08/08 A2996 RMK A01 T00790079  RH  100%=      5-min Rain = 0
KCH1 110622Z 10002KT 08/08 A2996 RMK A01 T00790079  RH  100%=      5-min Rain = 0
KCH1 110623Z 09002KT 08/08 A2996 RMK A01 T00790079  RH  100%=      5-min Rain = 0
KCH1 110624Z 08002KT 08/08 A2996 RMK A01 T00790079  RH  100%=      5-min Rain = 0
KCH1 110625Z 10002KT 08/08 A2996 RMK A01 T00790079  RH  100%=      5-min Rain = 0
KCH1 110626Z 11003KT 08/08 A2996 RMK A01 T00790079  RH  100%=      5-min Rain = 0
KCH1 110627Z 11002KT 08/08 A2996 RMK A01 T00790079  RH  100%=      5-min Rain = 0
KCH1 110628Z 11002KT 08/08 A2996 RMK A01 T00790079  RH  100%=      5-min Rain = 0
KCH1 110629Z 10002KT 08/08 A2996 RMK A01 T00790079  RH  100%=      5-min Rain = 0
KCH1 110630Z 11001KT 08/08 A2996 RMK A01 T00790079  RH  100%=      5-min Rain = 0
KCH1 110631Z 11002KT 08/08 A2996 RMK A01 T00790079  RH  100%=      5-min Rain = 0
KCH1 110632Z 11002KT 08/08 A2996 RMK A01 T00790079  RH  100%=      5-min Rain = 0
KCH1 110633Z 10002KT 08/08 A2996 RMK A01 T00790079  RH  100%=      5-min Rain = 0
KCH1 110634Z 09002KT 08/08 A2996 RMK A01 T00790079  RH  100%=      5-min Rain = 0
KCH1 110635Z 09002KT 08/08 A2996 RMK A01 T00790079  RH  100%=      5-min Rain = 0
KCH1 110636Z 10002KT 08/08 A2996 RMK A01 T00790079  RH  100%=      5-min Rain = 0
KCH1 110637Z 11002KT 08/08 A2996 RMK A01 T00790079  RH  100%=      5-min Rain = 0
KCH1 110638Z 08002KT 08/08 A2995 RMK A01 T00790079  RH  100%=      5-min Rain = 0
KCH1 110639Z 08001KT 08/08 A2995 RMK A01 T00790079  RH  100%=      5-min Rain = 0
KCH1 110640Z 09001KT 08/08 A2995 RMK A01 T00790079  RH  100%=      5-min Rain = 0
KCH1 110641Z 12001KT 08/08 A2995 RMK A01 T00790079  RH  100%=      5-min Rain = 0
KCH1 110642Z 12001KT 08/08 A2995 RMK A01 T00790079  RH  100%=      5-min Rain = 0
KCH1 110643Z 12001KT 08/08 A2995 RMK A01 T00790079  RH  100%=      5-min Rain = 0
KCH1 110644Z 08001KT 08/08 A2995 RMK A01 T00790079  RH  100%=      5-min Rain = 0
KCH1 110645Z 09001KT 08/08 A2995 RMK A01 T00790080  RH  100%=      5-min Rain = 0
KCH1 110646Z 08002KT 08/08 A2994 RMK A01 T00790079  RH  100%=      5-min Rain = 0
KCH1 110647Z 08002KT 08/08 A2994 RMK A01 T00800080  RH  100%=      5-min Rain = 0
KCH1 110648Z 08003KT 08/08 A2994 RMK A01 T00790079  RH  100%=      5-min Rain = 0
KCH1 110649Z 08003KT 08/08 A2994 RMK A01 T00790079  RH  100%=      5-min Rain = 0
KCH1 110650Z 07003KT 08/08 A2993 RMK A01 T00800080  RH  100%=      5-min Rain = 0
KCH1 110651Z 06004KT 08/08 A2993 RMK A01 T00790079  RH  100%=      5-min Rain = 0
KCH1 110652Z 06004KT 08/08 A2993 RMK A01 T00790079  RH  100%=      5-min Rain = 0
KCH1 110653Z 06004KT 08/08 A2993 RMK A01 T00790079  RH  100%=      5-min Rain = 0
KCH1 110654Z 06004KT 08/08 A2993 RMK A01 T00790079  RH  100%=      5-min Rain = 0
KCH1 110655Z 06003KT 08/08 A2993 RMK A01 T00790079  RH  100%=      5-min Rain = 0
KCH1 110656Z 05003KT 08/08 A2993 RMK A01 T00790079  RH  100%=      5-min Rain = 0
KCH1 110657Z 06003KT 08/08 A2993 RMK A01 T00790079  RH  100%=      5-min Rain = 0
KCH1 110658Z 06002KT 08/08 A2993 RMK A01 T00790079  RH  100%=      5-min Rain = 0
KCH1 110659Z 07002KT 08/08 A2994 RMK A01 T00790079  RH  100%=      5-min Rain = 0
KCH1 110700Z 08002KT 08/08 A2994 RMK A01 T00790079  RH  100%=      5-min Rain = 0
KCH1 110701Z 08002KT 08/08 A2993 RMK A01 T00790079  RH  100%=      5-min Rain = 0
KCH1 110702Z 06002KT 08/08 A2993 RMK A01 T00790079  RH  100%=      5-min Rain = 0
KCH1 110703Z 06002KT 08/08 A2993 RMK A01 T00790079  RH  100%=      5-min Rain = 0
KCH1 110704Z 06002KT 08/08 A2993 RMK A01 T00790079  RH  100%=      5-min Rain = 0
KCH1 110705Z 06001KT 08/08 A2993 RMK A01 T00790079  RH  100%=      5-min Rain = 0
KCH1 110706Z 03000KT 08/08 A2993 RMK A01 T00790079  RH  100%=      5-min Rain = 0
KCH1 110707Z 04001KT 08/08 A2993 RMK A01 T00790079  RH  100%=      5-min Rain = 0
KCH1 110708Z 05001KT 08/08 A2993 RMK A01 T00790079  RH  100%=      5-min Rain = 0
KCH1 110709Z 05002KT 08/08 A2993 RMK A01 T00790079  RH  100%=      5-min Rain = 0
KCH1 110710Z 07002KT 08/08 A2993 RMK A01 T00790079  RH  100%=      5-min Rain = 0
KCH1 110711Z 06002KT 08/08 A2993 RMK A01 T00790079  RH  100%=      5-min Rain = 0
KCH1 110712Z 06002KT 08/08 A2992 RMK A01 T00790079  RH  100%=      5-min Rain = 0
KCH1 110713Z 06002KT 08/08 A2992 RMK A01 T00790079  RH  100%=      5-min Rain = 0
KCH1 110714Z 06002KT 08/08 A2992 RMK A01 T00790079  RH  100%=      5-min Rain = 0
KCH1 110715Z 05003KT 08/08 A2992 RMK A01 T00790079  RH  100%=      5-min Rain = 0
KCH1 110716Z 05002KT 08/08 A2992 RMK A01 T00790079  RH  100%=      5-min Rain = 0
KCH1 110717Z 06003KT 08/08 A2992 RMK A01 T00790079  RH  100%=      5-min Rain = 0
KCH1 110718Z 06002KT 08/08 A2992 RMK A01 T00790079  RH  100%=      5-min Rain = 0
KCH1 110719Z 06002KT 08/08 A2992 RMK A01 T00780079  RH  100%=      5-min Rain = 0
KCH1 110720Z 06002KT 08/08 A2992 RMK A01 T00780078  RH  100%=      5-min Rain = 0
KCH1 110721Z 05002KT 08/08 A2992 RMK A01 T00780078  RH  100%=      5-min Rain = 0
KCH1 110722Z 07001KT 08/08 A2992 RMK A01 T00780078  RH  100%=      5-min Rain = 0
KCH1 110723Z 09002KT 08/08 A2992 RMK A01 T00780079  RH  100%=      5-min Rain = 0
KCH1 110724Z 08001KT 08/08 A2992 RMK A01 T00780079  RH  100%=      5-min Rain = 0
KCH1 110725Z 08001KT 08/08 A2992 RMK A01 T00780078  RH  100%=      5-min Rain = 0
KCH1 110726Z 09000KT 08/08 A2992 RMK A01 T00790079  RH  100%=      5-min Rain = 0
KCH1 110727Z 04000KT 08/08 A2992 RMK A01 T00780078  RH  100%=      5-min Rain = 0
KCH1 110728Z 03002KT 08/08 A2991 RMK A01 T00780078  RH  100%=      5-min Rain = 0
KCH1 110729Z 05002KT 08/08 A2991 RMK A01 T00780078  RH  100%=      5-min Rain = 0
KCH1 110730Z 06000KT 08/08 A2992 RMK A01 T00780078  RH  100%=      5-min Rain = 0
KCH1 110731Z 11000KT 08/08 A2992 RMK A01 T00780079  RH  100%=      5-min Rain = 0
KCH1 110732Z 11000KT 08/08 A2992 RMK A01 T00780079  RH  100%=      5-min Rain = 0
KCH1 110733Z 00000KT 08/08 A2992 RMK A01 T00780078  RH  100%=      5-min Rain = 0
KCH1 110734Z 31000KT 08/08 A2992 RMK A01 T00780078  RH  100%=      5-min Rain = 0
KCH1 110735Z 26001KT 08/08 A2992 RMK A01 T00780078  RH  100%=      5-min Rain = 0
KCH1 110736Z 25000KT 08/08 A2992 RMK A01 T00780078  RH  100%=      5-min Rain = 0
KCH1 110737Z 00000KT 08/08 A2992 RMK A01 T00790079  RH  100%=      5-min Rain = 0
KCH1 110738Z 00000KT 08/08 A2992 RMK A01 T00780078  RH  100%=      5-min Rain = 0
KCH1 110739Z 25000KT 08/08 A2992 RMK A01 T00790079  RH  100%=      5-min Rain = 0
KCH1 110740Z 27001KT 08/08 A2992 RMK A01 T00790079  RH  100%=      5-min Rain = 0
KCH1 110741Z 30001KT 08/08 A2992 RMK A01 T00790079  RH  100%=      5-min Rain = 0
KCH1 110742Z 31000KT 08/08 A2991 RMK A01 T00780079  RH  100%=      5-min Rain = 0
KCH1 110743Z 32001KT 08/08 A2991 RMK A01 T00780078  RH  100%=      5-min Rain = 0
KCH1 110744Z 33001KT 08/08 A2991 RMK A01 T00790079  RH  100%=      5-min Rain = 0
KCH1 110745Z 33001KT 08/08 A2991 RMK A01 T00780078  RH  100%=      5-min Rain = 0
KCH1 110746Z 33000KT 08/08 A2992 RMK A01 T00790079  RH  100%=      5-min Rain = 0
KCH1 110747Z 33000KT 08/08 A2992 RMK A01 T00790079  RH  100%=      5-min Rain = 0
KCH1 110748Z 31001KT 08/08 A2992 RMK A01 T00780078  RH  100%=      5-min Rain = 0
KCH1 110749Z 30001KT 08/08 A2992 RMK A01 T00780078  RH  100%=      5-min Rain = 0
KCH1 110750Z 28000KT 08/08 A2992 RMK A01 T00780078  RH  100%=      5-min Rain = 0
KCH1 110751Z 24001KT 08/08 A2992 RMK A01 T00780078  RH  100%=      5-min Rain = 0
KCH1 110752Z 24001KT 08/08 A2992 RMK A01 T00790079  RH  100%=      5-min Rain = 0
KCH1 110753Z 23001KT 08/08 A2992 RMK A01 T00780078  RH  100%=      5-min Rain = 0
KCH1 110754Z 20002KT 08/08 A2992 RMK A01 T00790079  RH  100%=      5-min Rain = 0
KCH1 110755Z 18003KT 08/08 A2992 RMK A01 T00790079  RH  100%=      5-min Rain = 0
KCH1 110756Z 17003KT 08/08 A2992 RMK A01 T00790079  RH  100%=      5-min Rain = 0
KCH1 110757Z 16003KT 08/08 A2992 RMK A01 T00780078  RH  100%=      5-min Rain = 0
KCH1 110758Z 15003KT 08/08 A2992 RMK A01 T00780078  RH  100%=      5-min Rain = 0
KCH1 110759Z 15005KT 08/08 A2992 RMK A01 T00780078  RH  100%=      5-min Rain = 0
KCH1 110800Z 15005KT 08/08 A2992 RMK A01 T00780078  RH  100%=      5-min Rain = 0
KCH1 110801Z 15004KT 08/08 A2992 RMK A01 T00780078  RH  100%=      5-min Rain = 0
KCH1 110802Z 15005KT 08/08 A2992 RMK A01 T00780078  RH  100%=      5-min Rain = 0
KCH1 110803Z 15005KT 08/08 A2992 RMK A01 T00780078  RH  100%=      5-min Rain = 0
KCH1 110804Z 15005KT 08/08 A2992 RMK A01 T00780078  RH  100%=      5-min Rain = 0
KCH1 110805Z 14004KT 08/08 A2992 RMK A01 T00780078  RH  100%=      5-min Rain = 0
KCH1 110806Z 15005KT 08/08 A2992 RMK A01 T00780078  RH  100%=      5-min Rain = 0
KCH1 110807Z 16005KT 08/08 A2992 RMK A01 T00780078  RH  100%=      5-min Rain = 0
KCH1 110808Z 16003KT 08/08 A2992 RMK A01 T00780078  RH  100%=      5-min Rain = 0
KCH1 110809Z 15004KT 08/08 A2992 RMK A01 T00780078  RH  100%=      5-min Rain = 0
KCH1 110810Z 16005KT 08/08 A2992 RMK A01 T00780078  RH  100%=      5-min Rain = 0
KCH1 110811Z 15005KT 08/08 A2992 RMK A01 T00780078  RH  100%=      5-min Rain = 0
KCH1 110812Z 15005KT 08/08 A2992 RMK A01 T00780078  RH  100%=      5-min Rain = 0
KCH1 110813Z 16004KT 08/08 A2992 RMK A01 T00780078  RH  100%=      5-min Rain = 0
KCH1 110814Z 16004KT 08/08 A2993 RMK A01 T00780078  RH  100%=      5-min Rain = 0
KCH1 110815Z 16005KT 08/08 A2992 RMK A01 T00780078  RH  100%=      5-min Rain = 0
KCH1 110816Z 16005KT 08/08 A2992 RMK A01 T00780078  RH  100%=      5-min Rain = 0
KCH1 110817Z 17005KT 08/08 A2993 RMK A01 T00780078  RH  100%=      5-min Rain = 0
KCH1 110818Z 17006KT 08/08 A2993 RMK A01 T00780078  RH  100%=      5-min Rain = 0
KCH1 110819Z 16005KT 08/08 A2993 RMK A01 T00780078  RH  100%=      5-min Rain = 0
KCH1 110820Z 16005KT 08/08 A2993 RMK A01 T00780078  RH  100%=      5-min Rain = 0
KCH1 110821Z 16006KT 08/08 A2992 RMK A01 T00780078  RH  100%=      5-min Rain = 0
KCH1 110822Z 17005KT 08/08 A2993 RMK A01 T00780078  RH  100%=      5-min Rain = 0
KCH1 110823Z 16005KT 08/08 A2993 RMK A01 T00780078  RH  100%=      5-min Rain = 0
KCH1 110824Z 16007KT 08/08 A2993 RMK A01 T00780078  RH  100%=      5-min Rain = 0
KCH1 110825Z 16005KT 08/08 A2992 RMK A01 T00780078  RH  100%=      5-min Rain = 0
KCH1 110826Z 15005KT 08/08 A2992 RMK A01 T00780078  RH  100%=      5-min Rain = 0
KCH1 110827Z 16005KT 08/08 A2992 RMK A01 T00780078  RH  100%=      5-min Rain = 0
KCH1 110828Z 16006KT 08/08 A2992 RMK A01 T00780078  RH  100%=      5-min Rain = 0
KCH1 110829Z 15006KT 08/08 A2992 RMK A01 T00770078  RH  100%=      5-min Rain = 0
KCH1 110830Z 13004KT 08/08 A2991 RMK A01 T00770077  RH  100%=      5-min Rain = 0
KCH1 110831Z 15004KT 08/08 A2992 RMK A01 T00780078  RH  100%=      5-min Rain = 0
KCH1 110832Z 16005KT 08/08 A2992 RMK A01 T00780078  RH  100%=      5-min Rain = 0
KCH1 110833Z 16004KT 08/08 A2992 RMK A01 T00780078  RH  100%=      5-min Rain = 0
KCH1 110834Z 14004KT 08/08 A2992 RMK A01 T00780078  RH  100%=      5-min Rain = 0
KCH1 110835Z 16004KT 08/08 A2992 RMK A01 T00780078  RH  100%=      5-min Rain = 0
KCH1 110836Z 16004KT 08/08 A2992 RMK A01 T00770077  RH  100%=      5-min Rain = 0
KCH1 110837Z 15005KT 08/08 A2992 RMK A01 T00770077  RH  100%=      5-min Rain = 0
KCH1 110838Z 15005KT 08/08 A2992 RMK A01 T00770077  RH  100%=      5-min Rain = 0
KCH1 110839Z 15006KT 08/08 A2992 RMK A01 T00770077  RH  100%=      5-min Rain = 0
KCH1 110840Z 15005KT 08/08 A2992 RMK A01 T00770077  RH  100%=      5-min Rain = 0
KCH1 110841Z 15005KT 08/08 A2992 RMK A01 T00770077  RH  100%=      5-min Rain = 0
KCH1 110842Z 15005KT 08/08 A2992 RMK A01 T00770077  RH  100%=      5-min Rain = 0
KCH1 110843Z 15005KT 08/08 A2992 RMK A01 T00770077  RH  100%=      5-min Rain = 0
KCH1 110844Z 15004KT 08/08 A2992 RMK A01 T00770077  RH  100%=      5-min Rain = 0
KCH1 110845Z 16005KT 08/08 A2992 RMK A01 T00770077  RH  100%=      5-min Rain = 0
KCH1 110846Z 15005KT 08/08 A2992 RMK A01 T00770077  RH  100%=      5-min Rain = 0
KCH1 110847Z 16005KT 08/08 A2992 RMK A01 T00770077  RH  100%=      5-min Rain = 0
KCH1 110848Z 17004KT 08/08 A2992 RMK A01 T00770077  RH  100%=      5-min Rain = 0
KCH1 110849Z 16004KT 08/08 A2992 RMK A01 T00770077  RH  100%=      5-min Rain = 0
KCH1 110850Z 16006KT 08/08 A2992 RMK A01 T00760076  RH  100%=      5-min Rain = 0
KCH1 110851Z 15005KT 08/08 A2992 RMK A01 T00770077  RH  100%=      5-min Rain = 0
KCH1 110852Z 17005KT 08/08 A2992 RMK A01 T00770077  RH  100%=      5-min Rain = 0
KCH1 110853Z 17006KT 08/08 A2992 RMK A01 T00770077  RH  100%=      5-min Rain = 0
KCH1 110854Z 16005KT 08/08 A2992 RMK A01 T00770077  RH  100%=      5-min Rain = 0
KCH1 110855Z 16004KT 08/08 A2992 RMK A01 T00760076  RH  100%=      5-min Rain = 0
KCH1 110856Z 17005KT 08/08 A2992 RMK A01 T00770077  RH  100%=      5-min Rain = 0
KCH1 110857Z 16005KT 08/08 A2992 RMK A01 T00760077  RH  100%=      5-min Rain = 0
KCH1 110858Z 16004KT 08/08 A2992 RMK A01 T00760076  RH  100%=      5-min Rain = 0
KCH1 110859Z 15004KT 08/08 A2992 RMK A01 T00760076  RH  100%=      5-min Rain = 0
KCH1 110900Z 17003KT 08/08 A2992 RMK A01 T00760076  RH  100%=      5-min Rain = 0
KCH1 110901Z 18004KT 08/08 A2992 RMK A01 T00760076  RH  100%=      5-min Rain = 0
KCH1 110902Z 17005KT 08/08 A2992 RMK A01 T00760076  RH  100%=      5-min Rain = 0
KCH1 110903Z 16005KT 08/08 A2992 RMK A01 T00760076  RH  100%=      5-min Rain = 0
KCH1 110904Z 15003KT 08/08 A2991 RMK A01 T00760076  RH  100%=      5-min Rain = 0
KCH1 110905Z 18005KT 08/08 A2992 RMK A01 T00760076  RH  100%=      5-min Rain = 0
KCH1 110906Z 19006KT 08/08 A2992 RMK A01 T00760076  RH  100%=      5-min Rain = 0
KCH1 110907Z 16006KT 08/08 A2991 RMK A01 T00760076  RH  100%=      5-min Rain = 0
KCH1 110908Z 15005KT 08/08 A2991 RMK A01 T00760076  RH  100%=      5-min Rain = 0
KCH1 110909Z 16005KT 08/08 A2991 RMK A01 T00760076  RH  100%=      5-min Rain = 0
KCH1 110910Z 17005KT 08/08 A2991 RMK A01 T00760076  RH  100%=      5-min Rain = 0
KCH1 110911Z 17006KT 08/08 A2991 RMK A01 T00760076  RH  100%=      5-min Rain = 0
KCH1 110912Z 16006KT 08/08 A299 RMK A01 T00760076  RH  100%=      5-min Rain = 0
KCH1 110913Z 17006KT 08/08 A299 RMK A01 T00760076  RH  100%=      5-min Rain = 0
KCH1 110914Z 18008KT 08/08 A2991 RMK A01 T00760076  RH  100%=      5-min Rain = 0
KCH1 110915Z 17007KT 08/08 A2991 RMK A01 T00760076  RH  100%=      5-min Rain = 0
KCH1 110916Z 16007KT 08/08 A299 RMK A01 T00760076  RH  100%=      5-min Rain = 0
KCH1 110917Z 17008KT 08/08 A299 RMK A01 T00760076  RH  100%=      5-min Rain = 0
KCH1 110918Z 18008KT 08/08 A2991 RMK A01 T00760076  RH  100%=      5-min Rain = 0
KCH1 110919Z 16008KT 08/08 A299 RMK A01 T00760076  RH  100%=      5-min Rain = 0
KCH1 110920Z 17007KT 08/08 A299 RMK A01 T00760076  RH  100%=      5-min Rain = 0
KCH1 110921Z 17007KT 08/08 A2991 RMK A01 T00760076  RH  100%=      5-min Rain = 0
KCH1 110922Z 17006KT 08/08 A299 RMK A01 T00760076  RH  100%=      5-min Rain = 0
KCH1 110923Z 16005KT 08/08 A299 RMK A01 T00760076  RH  100%=      5-min Rain = 0
KCH1 110924Z 18005KT 08/08 A299 RMK A01 T00760076  RH  100%=      5-min Rain = 0
KCH1 110925Z 16007KT 08/08 A299 RMK A01 T00760076  RH  100%=      5-min Rain = 0
KCH1 110926Z 16007KT 08/08 A2989 RMK A01 T00760076  RH  100%=      5-min Rain = 0
KCH1 110927Z 17007KT 08/08 A299 RMK A01 T00760076  RH  100%=      5-min Rain = 0
KCH1 110928Z 18006KT 08/08 A299 RMK A01 T00760076  RH  100%=      5-min Rain = 0
KCH1 110929Z 17005KT 08/08 A2989 RMK A01 T00760076  RH  100%=      5-min Rain = 0
KCH1 110930Z 15004KT 08/08 A2989 RMK A01 T00760076  RH  100%=      5-min Rain = 0
KCH1 110931Z 16004KT 08/08 A2989 RMK A01 T00760076  RH  100%=      5-min Rain = 0
KCH1 110932Z 17004KT 08/08 A299 RMK A01 T00760076  RH  100%=      5-min Rain = 0
KCH1 110933Z 16004KT 08/08 A2989 RMK A01 T00760076  RH  100%=      5-min Rain = 0
KCH1 110934Z 15005KT 08/08 A2989 RMK A01 T00760076  RH  100%=      5-min Rain = 0
KCH1 110935Z 16007KT 08/08 A2989 RMK A01 T00760076  RH  100%=      5-min Rain = 0
KCH1 110936Z 17005KT 08/08 A2989 RMK A01 T00760076  RH  100%=      5-min Rain = 0
KCH1 110937Z 16006KT 08/08 A2989 RMK A01 T00760076  RH  100%=      5-min Rain = 0
KCH1 110938Z 17006KT 08/08 A2989 RMK A01 T00760076  RH  100%=      5-min Rain = 0
KCH1 110939Z 17007KT 08/08 A2989 RMK A01 T00760076  RH  100%=      5-min Rain = 0
KCH1 110940Z 17006KT 08/08 A2989 RMK A01 T00760076  RH  100%=      5-min Rain = 0
KCH1 110941Z 16008KT 08/08 A2989 RMK A01 T00760076  RH  100%=      5-min Rain = 0
KCH1 110942Z 17005KT 08/08 A2989 RMK A01 T00760076  RH  100%=      5-min Rain = 0
KCH1 110943Z 16006KT 08/08 A2989 RMK A01 T00760076  RH  100%=      5-min Rain = 0
KCH1 110944Z 15005KT 08/08 A2988 RMK A01 T00760076  RH  100%=      5-min Rain = 0
KCH1 110945Z 17004KT 08/08 A2989 RMK A01 T00760076  RH  100%=      5-min Rain = 0
KCH1 110946Z 16004KT 08/08 A2988 RMK A01 T00760076  RH  100%=      5-min Rain = 0
KCH1 110947Z 16004KT 08/08 A2988 RMK A01 T00760076  RH  100%=      5-min Rain = 0
KCH1 110948Z 15004KT 08/08 A2988 RMK A01 T00760076  RH  100%=      5-min Rain = 0
KCH1 110949Z 15003KT 08/08 A2988 RMK A01 T00760076  RH  100%=      5-min Rain = 0
KCH1 110950Z 14004KT 08/08 A2988 RMK A01 T00760076  RH  100%=      5-min Rain = 0
KCH1 110951Z 15004KT 08/08 A2988 RMK A01 T00760076  RH  100%=      5-min Rain = 0
KCH1 110952Z 14003KT 08/08 A2988 RMK A01 T00760076  RH  100%=      5-min Rain = 0
KCH1 110953Z 15005KT 08/08 A2988 RMK A01 T00760076  RH  100%=      5-min Rain = 0
KCH1 110954Z 15004KT 08/08 A2988 RMK A01 T00760076  RH  100%=      5-min Rain = 0
KCH1 110955Z 16005KT 08/08 A2988 RMK A01 T00760076  RH  100%=      5-min Rain = 0
KCH1 110956Z 15005KT 08/08 A2988 RMK A01 T00760076  RH  100%=      5-min Rain = 0
KCH1 110957Z 16006KT 08/08 A2988 RMK A01 T00760076  RH  100%=      5-min Rain = 0
KCH1 110958Z 15005KT 08/08 A2988 RMK A01 T00760076  RH  100%=      5-min Rain = 0
KCH1 110959Z 16007KT 08/08 A2987 RMK A01 T00760076  RH  100%=      5-min Rain = 0
KCH1 111000Z 16006KT 08/08 A2987 RMK A01 T00760076  RH  100%=      5-min Rain = 0
KCH1 111001Z 17005KT 08/08 A2987 RMK A01 T00760076  RH  100%=      5-min Rain = 0
KCH1 111002Z 16006KT 08/08 A2987 RMK A01 T00760076  RH  100%=      5-min Rain = 0
KCH1 111003Z 16006KT 08/08 A2987 RMK A01 T00760076  RH  100%=      5-min Rain = 0
KCH1 111004Z 16005KT 08/08 A2987 RMK A01 T00760076  RH  100%=      5-min Rain = 0
KCH1 111005Z 17004KT 08/08 A2988 RMK A01 T00760076  RH  100%=      5-min Rain = 0
KCH1 111006Z 18003KT 08/08 A2987 RMK A01 T00760076  RH  100%=      5-min Rain = 0
KCH1 111007Z 17003KT 08/08 A2988 RMK A01 T00760076  RH  100%=      5-min Rain = 0
KCH1 111008Z 18005KT 08/08 A2988 RMK A01 T00760076  RH  100%=      5-min Rain = 0
KCH1 111009Z 18004KT 08/08 A2988 RMK A01 T00760076  RH  100%=      5-min Rain = 0
KCH1 111010Z 17004KT 08/08 A2988 RMK A01 T00760076  RH  100%=      5-min Rain = 0
KCH1 111011Z 18005KT 08/08 A2988 RMK A01 T00760076  RH  100%=      5-min Rain = 0
KCH1 111012Z 20003KT 08/08 A2988 RMK A01 T00760076  RH  100%=      5-min Rain = 0
KCH1 111013Z 21004KT 08/08 A2988 RMK A01 T00760076  RH  100%=      5-min Rain = 0
KCH1 111014Z 19005KT 08/08 A2988 RMK A01 T00760076  RH  100%=      5-min Rain = 0
KCH1 111015Z 20006KT 08/08 A2988 RMK A01 T00760076  RH  100%=      5-min Rain = 0
KCH1 111016Z 21006KT 08/08 A2988 RMK A01 T00760076  RH  100%=      5-min Rain = 0
KCH1 111017Z 20004KT 08/08 A2988 RMK A01 T00760076  RH  100%=      5-min Rain = 0
KCH1 111018Z 19005KT 08/08 A2988 RMK A01 T00760076  RH  100%=      5-min Rain = 0
KCH1 111019Z 19005KT 08/08 A2988 RMK A01 T00760076  RH  100%=      5-min Rain = 0
KCH1 111020Z 18004KT 08/08 A2988 RMK A01 T00760076  RH  100%=      5-min Rain = 0
KCH1 111021Z 18006KT 08/08 A2988 RMK A01 T00760076  RH  100%=      5-min Rain = 0
KCH1 111022Z 18005KT 08/08 A2988 RMK A01 T00760076  RH  100%=      5-min Rain = 0
KCH1 111023Z 18004KT 08/08 A2988 RMK A01 T00760076  RH  100%=      5-min Rain = 0
KCH1 111024Z 18005KT 08/08 A2988 RMK A01 T00760076  RH  100%=      5-min Rain = 0
KCH1 111025Z 18007KT 08/08 A2988 RMK A01 T00760076  RH  100%=      5-min Rain = 0
KCH1 111026Z 18004KT 08/08 A2988 RMK A01 T00760076  RH  100%=      5-min Rain = 0
KCH1 111027Z 18004KT 08/08 A2988 RMK A01 T00760076  RH  100%=      5-min Rain = 0
KCH1 111028Z 18003KT 08/08 A2988 RMK A01 T00760076  RH  100%=      5-min Rain = 0
KCH1 111029Z 18003KT 08/08 A2988 RMK A01 T00760076  RH  100%=      5-min Rain = 0
KCH1 111030Z 19004KT 08/08 A2988 RMK A01 T00760076  RH  100%=      5-min Rain = 0
KCH1 111031Z 19004KT 08/08 A2988 RMK A01 T00760076  RH  100%=      5-min Rain = 0
KCH1 111032Z 19006KT 08/08 A2988 RMK A01 T00760076  RH  100%=      5-min Rain = 0
KCH1 111033Z 20007KT 08/08 A2988 RMK A01 T00760076  RH  100%=      5-min Rain = 0
KCH1 111034Z 19004KT 08/08 A2988 RMK A01 T00760076  RH  100%=      5-min Rain = 0
KCH1 111035Z 18004KT 08/08 A2988 RMK A01 T00760076  RH  100%=      5-min Rain = 0
KCH1 111036Z 18007KT 08/08 A2988 RMK A01 T00760076  RH  100%=      5-min Rain = 0
KCH1 111037Z 18005KT 08/08 A2988 RMK A01 T00750075  RH  100%=      5-min Rain = 0
KCH1 111038Z 16003KT 08/08 A2988 RMK A01 T00750075  RH  100%=      5-min Rain = 0
KCH1 111039Z 18005KT 08/08 A2988 RMK A01 T00750075  RH  100%=      5-min Rain = 0
KCH1 111040Z 17003KT 08/08 A2988 RMK A01 T00750075  RH  100%=      5-min Rain = 0
KCH1 111041Z 17004KT 08/08 A2988 RMK A01 T00750075  RH  100%=      5-min Rain = 0
KCH1 111042Z 18004KT 08/08 A2988 RMK A01 T00750075  RH  100%=      5-min Rain = 0
KCH1 111043Z 17006KT 08/08 A2987 RMK A01 T00750075  RH  100%=      5-min Rain = 0
KCH1 111044Z 16004KT 08/08 A2987 RMK A01 T00750075  RH  100%=      5-min Rain = 0
KCH1 111045Z 17004KT 08/08 A2987 RMK A01 T00750075  RH  100%=      5-min Rain = 0
KCH1 111046Z 17006KT 07/07 A2987 RMK A01 T00740074  RH  100%=      5-min Rain = 0
KCH1 111047Z 17005KT 07/07 A2987 RMK A01 T00740074  RH  100%=      5-min Rain = 0
KCH1 111048Z 17004KT 07/07 A2987 RMK A01 T00740074  RH  100%=      5-min Rain = 0
KCH1 111049Z 17003KT 07/07 A2987 RMK A01 T00740074  RH  100%=      5-min Rain = 0
KCH1 111050Z 18003KT 07/07 A2987 RMK A01 T00740074  RH  100%=      5-min Rain = 0
KCH1 111051Z 19004KT 07/07 A2987 RMK A01 T00740074  RH  100%=      5-min Rain = 0
KCH1 111052Z 18004KT 07/07 A2987 RMK A01 T00740074  RH  100%=      5-min Rain = 0
KCH1 111053Z 19004KT 07/07 A2987 RMK A01 T00740074  RH  100%=      5-min Rain = 0
KCH1 111054Z 19002KT 07/07 A2988 RMK A01 T00740074  RH  100%=      5-min Rain = 0
KCH1 111055Z 20001KT 07/07 A2988 RMK A01 T00740074  RH  100%=      5-min Rain = 0
KCH1 111056Z 20002KT 07/07 A2988 RMK A01 T00740074  RH  100%=      5-min Rain = 0
KCH1 111057Z 22001KT 07/07 A2988 RMK A01 T00740074  RH  100%=      5-min Rain = 0
KCH1 111058Z 25001KT 07/07 A2988 RMK A01 T00740074  RH  100%=      5-min Rain = 0
KCH1 111059Z 00000KT 07/07 A2988 RMK A01 T00740074  RH  100%=      5-min Rain = 0
KCH1 111100Z 20000KT 07/08 A2988 RMK A01 T00740075  RH  100%=      5-min Rain = 0
KCH1 111101Z 22000KT 07/07 A2988 RMK A01 T00740074  RH  100%=      5-min Rain = 0
KCH1 111102Z 22001KT 07/07 A2988 RMK A01 T00740074  RH  100%=      5-min Rain = 0
KCH1 111103Z 21002KT 07/07 A2989 RMK A01 T00740074  RH  100%=      5-min Rain = 0
KCH1 111104Z 21003KT 07/07 A2989 RMK A01 T00740074  RH  100%=      5-min Rain = 0
KCH1 111105Z 20004KT 07/07 A2989 RMK A01 T00740074  RH  100%=      5-min Rain = 0
KCH1 111106Z 20004KT 07/07 A2988 RMK A01 T00740074  RH  100%=      5-min Rain = 0
KCH1 111107Z 21005KT 07/07 A2988 RMK A01 T00740074  RH  100%=      5-min Rain = 0
KCH1 111108Z 19003KT 07/07 A2988 RMK A01 T00740074  RH  100%=      5-min Rain = 0
KCH1 111109Z 21003KT 07/07 A2988 RMK A01 T00740074  RH  100%=      5-min Rain = 0
KCH1 111110Z 20003KT 07/07 A2988 RMK A01 T00740074  RH  100%=      5-min Rain = 0
KCH1 111111Z 21005KT 07/07 A2988 RMK A01 T00740074  RH  100%=      5-min Rain = 0
KCH1 111112Z 21005KT 07/07 A2988 RMK A01 T00740074  RH  100%=      5-min Rain = 0
KCH1 111113Z 22005KT 07/07 A2988 RMK A01 T00730073  RH  100%=      5-min Rain = 0
KCH1 111114Z 21003KT 07/07 A2988 RMK A01 T00740074  RH  100%=      5-min Rain = 0
KCH1 111115Z 22004KT 07/07 A2989 RMK A01 T00730073  RH  100%=      5-min Rain = 0
KCH1 111116Z 21005KT 07/07 A2989 RMK A01 T00740074  RH  100%=      5-min Rain = 0
KCH1 111117Z 22003KT 07/07 A2989 RMK A01 T00730073  RH  100%=      5-min Rain = 0
KCH1 111118Z 22002KT 07/07 A2988 RMK A01 T00730073  RH  100%=      5-min Rain = 0
KCH1 111119Z 20001KT 07/07 A2988 RMK A01 T00730073  RH  100%=      5-min Rain = 0
KCH1 111120Z 22003KT 07/07 A2988 RMK A01 T00730073  RH  100%=      5-min Rain = 0
KCH1 111121Z 20003KT 07/07 A2988 RMK A01 T00730073  RH  100%=      5-min Rain = 0
KCH1 111122Z 20005KT 07/07 A2988 RMK A01 T00730073  RH  100%=      5-min Rain = 0
KCH1 111123Z 17004KT 07/07 A2988 RMK A01 T00730073  RH  100%=      5-min Rain = 0
KCH1 111124Z 19004KT 07/07 A2987 RMK A01 T00720072  RH  100%=      5-min Rain = 0
KCH1 111125Z 18003KT 07/07 A2987 RMK A01 T00720072  RH  100%=      5-min Rain = 0
KCH1 111126Z 19002KT 07/07 A2987 RMK A01 T00720073  RH  100%=      5-min Rain = 0
KCH1 111127Z 18002KT 07/07 A2987 RMK A01 T00720072  RH  100%=      5-min Rain = 0
KCH1 111128Z 15002KT 07/07 A2987 RMK A01 T00720072  RH  100%=      5-min Rain = 0
KCH1 111129Z 14002KT 07/07 A2987 RMK A01 T00720072  RH  100%=      5-min Rain = 0
KCH1 111130Z 16002KT 07/07 A2987 RMK A01 T00720072  RH  100%=      5-min Rain = 0
KCH1 111131Z 15002KT 07/07 A2987 RMK A01 T00720072  RH  100%=      5-min Rain = 0
KCH1 111132Z 16003KT 07/07 A2988 RMK A01 T00720072  RH  100%=      5-min Rain = 0
KCH1 111133Z 19004KT 07/07 A2988 RMK A01 T00720072  RH  100%=      5-min Rain = 0
KCH1 111134Z 19002KT 07/07 A2988 RMK A01 T00710071  RH  100%=      5-min Rain = 0
KCH1 111135Z 17003KT 07/07 A2988 RMK A01 T00720072  RH  100%=      5-min Rain = 0
KCH1 111136Z 19004KT 07/07 A2988 RMK A01 T00710071  RH  100%=      5-min Rain = 0
KCH1 111137Z 19002KT 07/07 A2988 RMK A01 T00710071  RH  100%=      5-min Rain = 0
KCH1 111138Z 17002KT 07/07 A2988 RMK A01 T00710071  RH  100%=      5-min Rain = 0
KCH1 111139Z 18001KT 07/07 A2988 RMK A01 T00710071  RH  100%=      5-min Rain = 0
KCH1 111140Z 20001KT 07/07 A2988 RMK A01 T00710071  RH  100%=      5-min Rain = 0
KCH1 111141Z 20001KT 07/07 A2988 RMK A01 T00710071  RH  100%=      5-min Rain = 0
KCH1 111142Z 20002KT 07/07 A2988 RMK A01 T00710071  RH  100%=      5-min Rain = 0
KCH1 111143Z 21001KT 07/07 A2988 RMK A01 T00710071  RH  100%=      5-min Rain = 0
KCH1 111144Z 22001KT 07/07 A2987 RMK A01 T00710071  RH  100%=      5-min Rain = 0
KCH1 111145Z 18003KT 07/07 A2987 RMK A01 T00710071  RH  100%=      5-min Rain = 0
KCH1 111146Z 18001KT 07/07 A2987 RMK A01 T00710071  RH  100%=      5-min Rain = 0
KCH1 111147Z 14001KT 07/07 A2987 RMK A01 T00710071  RH  100%=      5-min Rain = 0
KCH1 111148Z 19002KT 07/07 A2987 RMK A01 T00710071  RH  100%=      5-min Rain = 0
KCH1 111149Z 19002KT 07/07 A2987 RMK A01 T00700070  RH  100%=      5-min Rain = 0
KCH1 111150Z 18002KT 07/07 A2987 RMK A01 T00700070  RH  100%=      5-min Rain = 0
KCH1 111151Z 18002KT 07/07 A2987 RMK A01 T00700070  RH  100%=      5-min Rain = 0
KCH1 111152Z 17002KT 07/07 A2987 RMK A01 T00700070  RH  100%=      5-min Rain = 0
KCH1 111153Z 18003KT 07/07 A2987 RMK A01 T00700070  RH  100%=      5-min Rain = 0
KCH1 111154Z 19003KT 07/07 A2987 RMK A01 T00700070  RH  100%=      5-min Rain = 0
KCH1 111155Z 20003KT 07/07 A2987 RMK A01 T00700070  RH  100%=      5-min Rain = 0
KCH1 111156Z 20002KT 07/07 A2987 RMK A01 T00700070  RH  100%=      5-min Rain = 0
KCH1 111157Z 20003KT 07/07 A2988 RMK A01 T00700070  RH  100%=      5-min Rain = 0
KCH1 111158Z 19003KT 07/07 A2988 RMK A01 T00700070  RH  100%=      5-min Rain = 0
KCH1 111159Z 20004KT 07/07 A2988 RMK A01 T00700070  RH  100%=      5-min Rain = 0
KCH1 111200Z 20004KT 07/07 A2987 RMK A01 T00700070  RH  100%=      5-min Rain = 0
KCH1 111201Z 20004KT 07/07 A2987 RMK A01 T00700070  RH  100%=      5-min Rain = 0
KCH1 111202Z 20004KT 07/07 A2987 RMK A01 T00710071  RH  100%=      5-min Rain = 0
KCH1 111203Z 19006KT 07/07 A2987 RMK A01 T00710071  RH  100%=      5-min Rain = 0
KCH1 111204Z 20006KT 07/07 A2987 RMK A01 T00710071  RH  100%=      5-min Rain = 0
KCH1 111205Z 19006KT 07/07 A2987 RMK A01 T00710071  RH  100%=      5-min Rain = 0
KCH1 111206Z 20007KT 07/07 A2987 RMK A01 T00710071  RH  100%=      5-min Rain = 0
KCH1 111207Z 19007KT 07/07 A2987 RMK A01 T00720072  RH  100%=      5-min Rain = 0
KCH1 111208Z 19006KT 07/07 A2987 RMK A01 T00710071  RH  100%=      5-min Rain = 0
KCH1 111209Z 19005KT 07/07 A2987 RMK A01 T00720072  RH  100%=      5-min Rain = 0
KCH1 111210Z 21005KT 07/07 A2987 RMK A01 T00720072  RH  100%=      5-min Rain = 0
KCH1 111211Z 21004KT 07/07 A2987 RMK A01 T00720072  RH  100%=      5-min Rain = 0
KCH1 111212Z 19006KT 07/07 A2987 RMK A01 T00720072  RH  100%=      5-min Rain = 0
KCH1 111213Z 20005KT 07/07 A2988 RMK A01 T00720072  RH  100%=      5-min Rain = 0
KCH1 111214Z 20004KT 07/07 A2988 RMK A01 T00720072  RH  100%=      5-min Rain = 0
KCH1 111215Z 21003KT 07/07 A2988 RMK A01 T00720072  RH  100%=      5-min Rain = 0
KCH1 111216Z 21003KT 07/07 A2988 RMK A01 T00720072  RH  100%=      5-min Rain = 0
KCH1 111217Z 20004KT 07/07 A2988 RMK A01 T00720071  RH  100%=      5-min Rain = 0
KCH1 111218Z 20004KT 07/07 A2988 RMK A01 T00720071  RH  099%=      5-min Rain = 0
KCH1 111219Z 21005KT 07/07 A2988 RMK A01 T00720071  RH  099%=      5-min Rain = 0
KCH1 111220Z 21004KT 07/07 A2988 RMK A01 T00720071  RH  099%=      5-min Rain = 0
KCH1 111221Z 21005KT 07/07 A2988 RMK A01 T00720071  RH  099%=      5-min Rain = 0
KCH1 111222Z 21006KT 07/07 A2988 RMK A01 T00720071  RH  099%=      5-min Rain = 0
KCH1 111223Z 21006KT 07/07 A2988 RMK A01 T00720070  RH  099%=      5-min Rain = 0
KCH1 111224Z 21005KT 07/07 A2988 RMK A01 T00720070  RH  099%=      5-min Rain = 0
KCH1 111225Z 20006KT 07/07 A2988 RMK A01 T00720070  RH  098%=      5-min Rain = 0
KCH1 111226Z 20005KT 07/07 A2989 RMK A01 T00720070  RH  098%=      5-min Rain = 0
KCH1 111227Z 20005KT 07/07 A2988 RMK A01 T00730070  RH  098%=      5-min Rain = 0
KCH1 111228Z 19005KT 07/07 A2988 RMK A01 T00730070  RH  098%=      5-min Rain = 0
KCH1 111229Z 19007KT 07/07 A2988 RMK A01 T00720069  RH  098%=      5-min Rain = 0
KCH1 111230Z 19005KT 07/07 A2988 RMK A01 T00730069  RH  098%=      5-min Rain = 0
KCH1 111231Z 20004KT 07/07 A2988 RMK A01 T00730069  RH  097%=      5-min Rain = 0
KCH1 111232Z 18003KT 07/07 A2988 RMK A01 T00730069  RH  097%=      5-min Rain = 0
KCH1 111233Z 18004KT 07/07 A2988 RMK A01 T00730069  RH  097%=      5-min Rain = 0
KCH1 111234Z 18005KT 07/07 A2988 RMK A01 T00730069  RH  097%=      5-min Rain = 0
KCH1 111235Z 19005KT 07/07 A2988 RMK A01 T00730069  RH  097%=      5-min Rain = 0
KCH1 111236Z 18003KT 07/07 A2988 RMK A01 T00730069  RH  097%=      5-min Rain = 0
KCH1 111237Z 18003KT 07/07 A2987 RMK A01 T00730069  RH  097%=      5-min Rain = 0
KCH1 111238Z 19003KT 07/07 A2987 RMK A01 T00730069  RH  097%=      5-min Rain = 0
KCH1 111239Z 18005KT 07/07 A2988 RMK A01 T00720069  RH  097%=      5-min Rain = 0
KCH1 111240Z 18004KT 07/07 A2987 RMK A01 T00730069  RH  097%=      5-min Rain = 0
KCH1 111241Z 17002KT 07/07 A2987 RMK A01 T00720069  RH  097%=      5-min Rain = 0
KCH1 111242Z 18002KT 07/07 A2987 RMK A01 T00720069  RH  097%=      5-min Rain = 0
KCH1 111243Z 18002KT 07/07 A2987 RMK A01 T00730069  RH  097%=      5-min Rain = 0
KCH1 111244Z 18003KT 07/07 A2987 RMK A01 T00730069  RH  097%=      5-min Rain = 0
KCH1 111245Z 18003KT 07/07 A2987 RMK A01 T00720068  RH  097%=      5-min Rain = 0
KCH1 111246Z 18004KT 07/07 A2986 RMK A01 T00720068  RH  097%=      5-min Rain = 0
KCH1 111247Z 18003KT 07/07 A2986 RMK A01 T00720068  RH  097%=      5-min Rain = 0
KCH1 111248Z 18003KT 07/07 A2987 RMK A01 T00720068  RH  097%=      5-min Rain = 0
KCH1 111249Z 18003KT 07/07 A2987 RMK A01 T00720068  RH  097%=      5-min Rain = 0
KCH1 111250Z 19002KT 07/07 A2987 RMK A01 T00720068  RH  097%=      5-min Rain = 0
KCH1 111251Z 20002KT 07/07 A2987 RMK A01 T00720068  RH  097%=      5-min Rain = 0
KCH1 111252Z 20003KT 07/07 A2987 RMK A01 T00720068  RH  097%=      5-min Rain = 0
KCH1 111253Z 21001KT 07/07 A2987 RMK A01 T00730068  RH  097%=      5-min Rain = 0
KCH1 111254Z 21001KT 07/07 A2987 RMK A01 T00730068  RH  097%=      5-min Rain = 0
KCH1 111255Z 21002KT 07/07 A2987 RMK A01 T00720068  RH  097%=      5-min Rain = 0
KCH1 111256Z 21002KT 07/07 A2987 RMK A01 T00720068  RH  097%=      5-min Rain = 0
KCH1 111257Z 23001KT 07/07 A2987 RMK A01 T00720068  RH  097%=      5-min Rain = 0
KCH1 111258Z 21002KT 07/07 A2987 RMK A01 T00720068  RH  097%=      5-min Rain = 0
KCH1 111259Z 21002KT 07/07 A2987 RMK A01 T00720068  RH  097%=      5-min Rain = 0
KCH1 111300Z 21001KT 07/07 A2987 RMK A01 T00720068  RH  097%=      5-min Rain = 0
KCH1 111301Z 23001KT 07/07 A2986 RMK A01 T00720068  RH  097%=      5-min Rain = 0
KCH1 111302Z 22000KT 07/07 A2986 RMK A01 T00720068  RH  097%=      5-min Rain = 0
KCH1 111303Z 22000KT 07/07 A2986 RMK A01 T00720068  RH  097%=      5-min Rain = 0
KCH1 111304Z 35001KT 07/07 A2986 RMK A01 T00720068  RH  098%=      5-min Rain = 0
KCH1 111305Z 01002KT 07/07 A2986 RMK A01 T00710068  RH  098%=      5-min Rain = 0
KCH1 111306Z 03002KT 07/07 A2986 RMK A01 T00710068  RH  098%=      5-min Rain = 0
KCH1 111307Z 03003KT 07/07 A2986 RMK A01 T00710068  RH  098%=      5-min Rain = 0
KCH1 111308Z 02003KT 07/07 A2986 RMK A01 T00710068  RH  098%=      5-min Rain = 0
KCH1 111309Z 02003KT 07/07 A2986 RMK A01 T00700067  RH  098%=      5-min Rain = 0
KCH1 111310Z 02003KT 07/07 A2986 RMK A01 T00700068  RH  098%=      5-min Rain = 0
KCH1 111311Z 03002KT 07/07 A2986 RMK A01 T00700067  RH  099%=      5-min Rain = 0
KCH1 111312Z 02003KT 07/07 A2986 RMK A01 T00700068  RH  099%=      5-min Rain = 0
KCH1 111313Z 02003KT 07/07 A2986 RMK A01 T00700068  RH  099%=      5-min Rain = 0
KCH1 111314Z 01002KT 07/07 A2986 RMK A01 T00700068  RH  099%=      5-min Rain = 0
KCH1 111315Z 36002KT 07/07 A2986 RMK A01 T00700068  RH  099%=      5-min Rain = 0
KCH1 111316Z 35001KT 07/07 A2986 RMK A01 T00700068  RH  099%=      5-min Rain = 0
KCH1 111317Z 34000KT 07/07 A2986 RMK A01 T00700068  RH  099%=      5-min Rain = 0
KCH1 111318Z 00000KT 07/07 A2986 RMK A01 T00700068  RH  099%=      5-min Rain = 0
KCH1 111319Z 17000KT 07/07 A2986 RMK A01 T00700069  RH  099%=      5-min Rain = 0
KCH1 111320Z 17002KT 07/07 A2985 RMK A01 T00700069  RH  099%=      5-min Rain = 0
KCH1 111321Z 18003KT 07/07 A2985 RMK A01 T00700069  RH  099%=      5-min Rain = 0
KCH1 111322Z 17004KT 07/07 A2986 RMK A01 T00700069  RH  099%=      5-min Rain = 0
KCH1 111323Z 17006KT 07/07 A2986 RMK A01 T00700069  RH  099%=      5-min Rain = 0
KCH1 111324Z 17008KT 07/07 A2986 RMK A01 T00690068  RH  099%=      5-min Rain = 0
KCH1 111325Z 17008KT 07/07 A2986 RMK A01 T00690068  RH  099%=      5-min Rain = 0
KCH1 111326Z 17006KT 07/07 A2986 RMK A01 T00690069  RH  099%=      5-min Rain = 0
KCH1 111327Z 17004KT 07/07 A2986 RMK A01 T00700069  RH  099%=      5-min Rain = 0
KCH1 111328Z 18002KT 07/07 A2986 RMK A01 T00700069  RH  099%=      5-min Rain = 0
KCH1 111329Z 19001KT 07/07 A2986 RMK A01 T00700069  RH  099%=      5-min Rain = 0
KCH1 111330Z 25000KT 07/07 A2987 RMK A01 T00700069  RH  099%=      5-min Rain = 0
KCH1 111331Z 26001KT 07/07 A2987 RMK A01 T00710069  RH  099%=      5-min Rain = 0
KCH1 111332Z 25000KT 07/07 A2987 RMK A01 T00710069  RH  099%=      5-min Rain = 0
KCH1 111333Z 00000KT 07/07 A2988 RMK A01 T00710069  RH  099%=      5-min Rain = 0
KCH1 111334Z 13000KT 07/07 A2987 RMK A01 T00700069  RH  099%=      5-min Rain = 0
KCH1 111335Z 15000KT 07/07 A2987 RMK A01 T00710069  RH  099%=      5-min Rain = 0
KCH1 111336Z 15001KT 07/07 A2987 RMK A01 T00710069  RH  099%=      5-min Rain = 0
KCH1 111337Z 15002KT 07/07 A2987 RMK A01 T00710069  RH  099%=      5-min Rain = 0
KCH1 111338Z 15002KT 07/07 A2987 RMK A01 T00710069  RH  099%=      5-min Rain = 0
KCH1 111339Z 13002KT 07/07 A2987 RMK A01 T00710069  RH  099%=      5-min Rain = 0
KCH1 111340Z 09002KT 07/07 A2987 RMK A01 T00710069  RH  099%=      5-min Rain = 0
KCH1 111341Z 07002KT 07/07 A2987 RMK A01 T00700069  RH  099%=      5-min Rain = 0
KCH1 111342Z 07001KT 07/07 A2987 RMK A01 T00710069  RH  099%=      5-min Rain = 0
KCH1 111343Z 09002KT 07/07 A2987 RMK A01 T00710069  RH  099%=      5-min Rain = 0
KCH1 111344Z 10002KT 07/07 A2987 RMK A01 T00700068  RH  099%=      5-min Rain = 0
KCH1 111345Z 08002KT 07/07 A2987 RMK A01 T00700069  RH  099%=      5-min Rain = 0
KCH1 111351Z 12003KT 07/07 A2986 RMK A01 T00700069  RH  099%=      5-min Rain = 0
KCH1 111352Z 13004KT 07/07 A2986 RMK A01 T00700069  RH  099%=      5-min Rain = 0
KCH1 111353Z 13003KT 07/07 A2986 RMK A01 T00700069  RH  100%=      5-min Rain = 0
KCH1 111354Z 13004KT 07/07 A2986 RMK A01 T00700069  RH  100%=      5-min Rain = 0
KCH1 111355Z 13004KT 07/07 A2986 RMK A01 T00700069  RH  100%=      5-min Rain = 0
KCH1 111356Z 13004KT 07/07 A2986 RMK A01 T00700070  RH  100%=      5-min Rain = 0
KCH1 111357Z 13004KT 07/07 A2986 RMK A01 T00700070  RH  100%=      5-min Rain = 0
KCH1 111358Z 14003KT 07/07 A2986 RMK A01 T00700070  RH  100%=      5-min Rain = 0
KCH1 111359Z 14003KT 07/07 A2986 RMK A01 T00710070  RH  100%=      5-min Rain = 0
KCH1 111400Z 13002KT 07/07 A2986 RMK A01 T00710070  RH  099%=      5-min Rain = 0
KCH1 111401Z 14001KT 07/07 A2986 RMK A01 T00710070  RH  099%=      5-min Rain = 0
KCH1 111402Z 15003KT 07/07 A2986 RMK A01 T00710070  RH  099%=      5-min Rain = 0
KCH1 111403Z 16002KT 07/07 A2986 RMK A01 T00710070  RH  099%=      5-min Rain = 0
KCH1 111404Z 16000KT 07/07 A2986 RMK A01 T00710070  RH  099%=      5-min Rain = 0
KCH1 111405Z 27000KT 07/07 A2987 RMK A01 T00720070  RH  099%=      5-min Rain = 0
KCH1 111406Z 29001KT 07/07 A2987 RMK A01 T00720071  RH  099%=      5-min Rain = 0
KCH1 111407Z 33001KT 07/07 A2987 RMK A01 T00720071  RH  099%=      5-min Rain = 0
KCH1 111408Z 29001KT 07/07 A2987 RMK A01 T00720071  RH  099%=      5-min Rain = 0
KCH1 111409Z 27000KT 07/07 A2987 RMK A01 T00720071  RH  099%=      5-min Rain = 0
KCH1 111410Z 20001KT 07/07 A2987 RMK A01 T00730071  RH  099%=      5-min Rain = 0
KCH1 111411Z 20001KT 07/07 A2987 RMK A01 T00730071  RH  099%=      5-min Rain = 0
KCH1 111412Z 18003KT 07/07 A2987 RMK A01 T00730071  RH  099%=      5-min Rain = 0
KCH1 111413Z 17003KT 07/07 A2987 RMK A01 T00730071  RH  099%=      5-min Rain = 0
KCH1 111414Z 16002KT 07/07 A2987 RMK A01 T00730071  RH  098%=      5-min Rain = 0
KCH1 111415Z 15002KT 07/07 A2986 RMK A01 T00730071  RH  098%=      5-min Rain = 0
KCH1 111416Z 13001KT 07/07 A2986 RMK A01 T00740071  RH  098%=      5-min Rain = 0
KCH1 111417Z 10001KT 07/07 A2987 RMK A01 T00730071  RH  099%=      5-min Rain = 0
KCH1 111418Z 07001KT 07/07 A2987 RMK A01 T00730071  RH  099%=      5-min Rain = 0
KCH1 111419Z 07001KT 07/07 A2987 RMK A01 T00730071  RH  099%=      5-min Rain = 0
KCH1 111420Z 06001KT 07/07 A2987 RMK A01 T00730071  RH  099%=      5-min Rain = 0
KCH1 111421Z 00000KT 07/07 A2987 RMK A01 T00730071  RH  099%=      5-min Rain = 0
KCH1 111422Z 06000KT 07/07 A2987 RMK A01 T00730072  RH  099%=      5-min Rain = 0
KCH1 111423Z 00000KT 07/07 A2987 RMK A01 T00730071  RH  099%=      5-min Rain = 0
KCH1 111424Z 00000KT 07/07 A2987 RMK A01 T00730072  RH  099%=      5-min Rain = 0
KCH1 111425Z 00000KT 07/07 A2987 RMK A01 T00730072  RH  099%=      5-min Rain = 0
KCH1 111426Z 14000KT 07/07 A2987 RMK A01 T00730072  RH  099%=      5-min Rain = 0
KCH1 111427Z 14000KT 07/07 A2987 RMK A01 T00740072  RH  099%=      5-min Rain = 0
KCH1 111428Z 13001KT 07/07 A2987 RMK A01 T00730072  RH  099%=      5-min Rain = 0
KCH1 111429Z 15002KT 07/07 A2987 RMK A01 T00730072  RH  099%=      5-min Rain = 0
KCH1 111430Z 16001KT 07/07 A2987 RMK A01 T00730072  RH  099%=      5-min Rain = 0
KCH1 111431Z 16001KT 07/07 A2987 RMK A01 T00740073  RH  099%=      5-min Rain = 0
KCH1 111432Z 16001KT 07/07 A2987 RMK A01 T00740073  RH  099%=      5-min Rain = 0
KCH1 111433Z 17000KT 07/07 A2987 RMK A01 T00740072  RH  099%=      5-min Rain = 0
KCH1 111434Z 17000KT 07/07 A2988 RMK A01 T00740073  RH  099%=      5-min Rain = 0
KCH1 111435Z 30001KT 07/07 A2988 RMK A01 T00740073  RH  099%=      5-min Rain = 0
KCH1 111436Z 30002KT 07/07 A2988 RMK A01 T00740073  RH  099%=      5-min Rain = 0
KCH1 111437Z 31001KT 07/07 A2987 RMK A01 T00740073  RH  099%=      5-min Rain = 0
KCH1 111438Z 17000KT 07/07 A2987 RMK A01 T00740073  RH  099%=      5-min Rain = 0
KCH1 111439Z 16002KT 07/07 A2987 RMK A01 T00740073  RH  099%=      5-min Rain = 0
KCH1 111440Z 16004KT 08/07 A2987 RMK A01 T00750073  RH  099%=      5-min Rain = 0
KCH1 111441Z 15005KT 08/07 A2988 RMK A01 T00750074  RH  099%=      5-min Rain = 0
KCH1 111442Z 14004KT 08/07 A2988 RMK A01 T00750074  RH  099%=      5-min Rain = 0
KCH1 111443Z 15002KT 08/07 A2988 RMK A01 T00750074  RH  099%=      5-min Rain = 0
KCH1 111444Z 15002KT 08/07 A2988 RMK A01 T00750074  RH  099%=      5-min Rain = 0
KCH1 111445Z 17002KT 08/07 A2989 RMK A01 T00750074  RH  099%=      5-min Rain = 0
KCH1 111446Z 17002KT 08/07 A2988 RMK A01 T00750074  RH  099%=      5-min Rain = 0
KCH1 111447Z 16002KT 08/07 A2988 RMK A01 T00750074  RH  099%=      5-min Rain = 0
KCH1 111448Z 16002KT 08/07 A2988 RMK A01 T00750074  RH  099%=      5-min Rain = 0
KCH1 111449Z 15003KT 08/07 A2988 RMK A01 T00750073  RH  099%=      5-min Rain = 0
KCH1 111450Z 14002KT 08/07 A2988 RMK A01 T00750073  RH  099%=      5-min Rain = 0
KCH1 111451Z 12001KT 08/07 A2988 RMK A01 T00750074  RH  099%=      5-min Rain = 0
KCH1 111452Z 09001KT 08/07 A2988 RMK A01 T00760074  RH  099%=      5-min Rain = 0
KCH1 111453Z 11002KT 08/07 A2988 RMK A01 T00760074  RH  099%=      5-min Rain = 0
KCH1 111454Z 12003KT 08/07 A2988 RMK A01 T00760074  RH  099%=      5-min Rain = 0
KCH1 111455Z 12003KT 08/07 A2988 RMK A01 T00760074  RH  099%=      5-min Rain = 0
KCH1 111456Z 11002KT 08/07 A2988 RMK A01 T00760074  RH  099%=      5-min Rain = 0
KCH1 111457Z 11003KT 08/07 A2988 RMK A01 T00760074  RH  099%=      5-min Rain = 0
KCH1 111458Z 10002KT 08/07 A2988 RMK A01 T00760074  RH  099%=      5-min Rain = 0
KCH1 111459Z 11001KT 08/08 A2988 RMK A01 T00760075  RH  099%=      5-min Rain = 0
KCH1 111500Z 12002KT 08/08 A2988 RMK A01 T00760075  RH  099%=      5-min Rain = 0
KCH1 111501Z 15002KT 08/08 A2989 RMK A01 T00760075  RH  099%=      5-min Rain = 0
KCH1 111502Z 16002KT 08/08 A2989 RMK A01 T00760075  RH  099%=      5-min Rain = 0
KCH1 111503Z 16002KT 08/07 A2989 RMK A01 T00760074  RH  099%=      5-min Rain = 0
KCH1 111504Z 16001KT 08/07 A2989 RMK A01 T00760074  RH  099%=      5-min Rain = 0
KCH1 111505Z 16002KT 08/07 A2989 RMK A01 T00760074  RH  099%=      5-min Rain = 0
KCH1 111506Z 16001KT 08/07 A2989 RMK A01 T00760074  RH  099%=      5-min Rain = 0
KCH1 111507Z 16000KT 08/07 A2989 RMK A01 T00760074  RH  099%=      5-min Rain = 0
KCH1 111508Z 16000KT 08/07 A2989 RMK A01 T00760074  RH  099%=      5-min Rain = 0
KCH1 111509Z 00000KT 08/07 A2989 RMK A01 T00760074  RH  099%=      5-min Rain = 0
KCH1 111510Z 34001KT 08/07 A2989 RMK A01 T00760074  RH  099%=      5-min Rain = 0
KCH1 111511Z 34002KT 08/08 A2989 RMK A01 T00770075  RH  099%=      5-min Rain = 0
KCH1 111512Z 33001KT 08/08 A299 RMK A01 T00770075  RH  099%=      5-min Rain = 0
KCH1 111513Z 00000KT 08/08 A299 RMK A01 T00770075  RH  099%=      5-min Rain = 0
KCH1 111514Z 00000KT 08/08 A2989 RMK A01 T00770076  RH  099%=      5-min Rain = 0
KCH1 111515Z 00000KT 08/08 A2989 RMK A01 T00770075  RH  099%=      5-min Rain = 0
KCH1 111516Z 00000KT 08/08 A2989 RMK A01 T00770076  RH  099%=      5-min Rain = 0
KCH1 111517Z 00000KT 08/08 A2989 RMK A01 T00770076  RH  099%=      5-min Rain = 0
KCH1 111518Z 00000KT 08/08 A2989 RMK A01 T00780076  RH  099%=      5-min Rain = 0
KCH1 111519Z 02000KT 08/08 A2989 RMK A01 T00780076  RH  099%=      5-min Rain = 0
KCH1 111520Z 03001KT 08/08 A2989 RMK A01 T00770075  RH  099%=      5-min Rain = 0
KCH1 111521Z 03000KT 08/08 A2989 RMK A01 T00770075  RH  099%=      5-min Rain = 0
KCH1 111522Z 00000KT 08/08 A2989 RMK A01 T00770075  RH  098%=      5-min Rain = 0
KCH1 111523Z 00000KT 08/08 A2989 RMK A01 T00770075  RH  098%=      5-min Rain = 0
KCH1 111524Z 00000KT 08/08 A299 RMK A01 T00770075  RH  099%=      5-min Rain = 0
KCH1 111525Z 15000KT 08/08 A299 RMK A01 T00780076  RH  099%=      5-min Rain = 0
KCH1 111526Z 16000KT 08/08 A299 RMK A01 T00780076  RH  099%=      5-min Rain = 0
KCH1 111527Z 32000KT 08/08 A299 RMK A01 T00780076  RH  099%=      5-min Rain = 0
KCH1 111528Z 34000KT 08/08 A299 RMK A01 T00780076  RH  098%=      5-min Rain = 0
KCH1 111529Z 00000KT 08/08 A299 RMK A01 T00780076  RH  099%=      5-min Rain = 0
KCH1 111530Z 00000KT 08/08 A299 RMK A01 T00780076  RH  099%=      5-min Rain = 0
KCH1 111531Z 00000KT 08/08 A299 RMK A01 T00780076  RH  099%=      5-min Rain = 0
KCH1 111532Z 34001KT 08/08 A299 RMK A01 T00790076  RH  099%=      5-min Rain = 0
KCH1 111533Z 34002KT 08/08 A299 RMK A01 T00790076  RH  099%=      5-min Rain = 0
KCH1 111534Z 34003KT 08/08 A2991 RMK A01 T00790077  RH  099%=      5-min Rain = 0
KCH1 111535Z 35002KT 08/08 A2991 RMK A01 T00800078  RH  099%=      5-min Rain = 0
KCH1 111536Z 35002KT 08/08 A299 RMK A01 T00800078  RH  099%=      5-min Rain = 0
KCH1 111537Z 36002KT 08/08 A299 RMK A01 T00800078  RH  099%=      5-min Rain = 0
KCH1 111538Z 35002KT 08/08 A299 RMK A01 T00800078  RH  099%=      5-min Rain = 0
KCH1 111539Z 34002KT 08/08 A2991 RMK A01 T00800078  RH  099%=      5-min Rain = 0
KCH1 111540Z 33002KT 08/08 A299 RMK A01 T00800079  RH  099%=      5-min Rain = 0
KCH1 111541Z 33001KT 08/08 A299 RMK A01 T00800078  RH  099%=      5-min Rain = 0
KCH1 111542Z 32001KT 08/08 A299 RMK A01 T00800078  RH  099%=      5-min Rain = 0
KCH1 111543Z 31002KT 08/08 A299 RMK A01 T00800078  RH  099%=      5-min Rain = 0
KCH1 111544Z 31003KT 08/08 A2991 RMK A01 T00800078  RH  099%=      5-min Rain = 0
KCH1 111545Z 31002KT 08/08 A2991 RMK A01 T00800078  RH  099%=      5-min Rain = 0
KCH1 111546Z 29002KT 08/08 A2991 RMK A01 T00800078  RH  099%=      5-min Rain = 0
KCH1 111547Z 28002KT 08/08 A2991 RMK A01 T00800078  RH  099%=      5-min Rain = 0
KCH1 111548Z 29002KT 08/08 A2991 RMK A01 T00800078  RH  099%=      5-min Rain = 0
KCH1 111549Z 30002KT 08/08 A2991 RMK A01 T00800078  RH  099%=      5-min Rain = 0.01
KCH1 111550Z 31002KT 08/08 A2991 RMK A01 T00800078  RH  099%=      5-min Rain = 0
KCH1 111551Z 31002KT 08/08 A299 RMK A01 T00800078  RH  098%=      5-min Rain = 0
KCH1 111552Z 31001KT 08/08 A299 RMK A01 T00800077  RH  098%=      5-min Rain = 0
KCH1 111553Z 31002KT 08/08 A299 RMK A01 T00800077  RH  098%=      5-min Rain = 0
KCH1 111554Z 32002KT 08/08 A299 RMK A01 T00810077  RH  098%=      5-min Rain = 0
KCH1 111555Z 34002KT 08/08 A299 RMK A01 T00810078  RH  098%=      5-min Rain = 0
KCH1 111556Z 33002KT 08/08 A299 RMK A01 T00820079  RH  098%=      5-min Rain = 0
KCH1 111557Z 32002KT 08/08 A299 RMK A01 T00820079  RH  098%=      5-min Rain = 0
KCH1 111558Z 32002KT 08/08 A299 RMK A01 T00810078  RH  098%=      5-min Rain = 0
KCH1 111559Z 33002KT 08/08 A299 RMK A01 T00820079  RH  098%=      5-min Rain = 0
KCH1 111600Z 33001KT 08/08 A299 RMK A01 T00820079  RH  098%=      5-min Rain = 0
KCH1 111601Z 31001KT 08/08 A299 RMK A01 T00820079  RH  098%=      5-min Rain = 0
KCH1 111602Z 32001KT 08/08 A299 RMK A01 T00820079  RH  098%=      5-min Rain = 0
KCH1 111603Z 33001KT 08/08 A299 RMK A01 T00820079  RH  098%=      5-min Rain = 0
KCH1 111604Z 31001KT 08/08 A2991 RMK A01 T00820079  RH  098%=      5-min Rain = 0
KCH1 111605Z 31001KT 08/08 A2991 RMK A01 T00820079  RH  098%=      5-min Rain = 0
KCH1 111606Z 29001KT 08/08 A2991 RMK A01 T00820079  RH  098%=      5-min Rain = 0
KCH1 111607Z 00000KT 08/08 A2991 RMK A01 T00820079  RH  098%=      5-min Rain = 0
KCH1 111608Z 00000KT 08/08 A2991 RMK A01 T00820079  RH  098%=      5-min Rain = 0
KCH1 111609Z 11000KT 08/08 A2991 RMK A01 T00820079  RH  098%=      5-min Rain = 0
KCH1 111610Z 13001KT 08/08 A2991 RMK A01 T00830080  RH  098%=      5-min Rain = 0
KCH1 111611Z 13002KT 08/08 A2991 RMK A01 T00830080  RH  098%=      5-min Rain = 0
KCH1 111612Z 13003KT 08/08 A2991 RMK A01 T00840081  RH  098%=      5-min Rain = 0
KCH1 111613Z 13004KT 08/08 A2991 RMK A01 T00840081  RH  098%=      5-min Rain = 0
KCH1 111614Z 13005KT 08/08 A2991 RMK A01 T00840081  RH  098%=      5-min Rain = 0
KCH1 111615Z 13004KT 08/08 A2991 RMK A01 T00840081  RH  098%=      5-min Rain = 0
KCH1 111616Z 13005KT 08/08 A2991 RMK A01 T00840082  RH  098%=      5-min Rain = 0
KCH1 111617Z 13004KT 08/08 A2991 RMK A01 T00840082  RH  099%=      5-min Rain = 0
KCH1 111618Z 13003KT 08/08 A2991 RMK A01 T00840082  RH  099%=      5-min Rain = 0
KCH1 111619Z 14002KT 08/08 A2991 RMK A01 T00840082  RH  099%=      5-min Rain = 0
KCH1 111620Z 12001KT 08/08 A2991 RMK A01 T00830082  RH  099%=      5-min Rain = 0
KCH1 111621Z 12002KT 08/08 A2991 RMK A01 T00830082  RH  099%=      5-min Rain = 0
KCH1 111622Z 07001KT 08/08 A2991 RMK A01 T00830081  RH  099%=      5-min Rain = 0
KCH1 111623Z 10001KT 08/08 A2991 RMK A01 T00830081  RH  099%=      5-min Rain = 0
KCH1 111624Z 15002KT 08/08 A2991 RMK A01 T00840082  RH  099%=      5-min Rain = 0
KCH1 111625Z 16004KT 08/08 A2991 RMK A01 T00840082  RH  099%=      5-min Rain = 0
KCH1 111626Z 16005KT 08/08 A2991 RMK A01 T00830081  RH  099%=      5-min Rain = 0
KCH1 111627Z 17004KT 08/08 A2991 RMK A01 T00830081  RH  099%=      5-min Rain = 0
KCH1 111628Z 17005KT 08/08 A2991 RMK A01 T00840082  RH  099%=      5-min Rain = 0
KCH1 111629Z 17004KT 08/08 A2991 RMK A01 T00840083  RH  099%=      5-min Rain = 0
KCH1 111630Z 16003KT 08/08 A2991 RMK A01 T00840083  RH  099%=      5-min Rain = 0
KCH1 111631Z 15003KT 09/08 A2991 RMK A01 T00850083  RH  099%=      5-min Rain = 0
KCH1 111632Z 15003KT 09/08 A2991 RMK A01 T00850084  RH  099%=      5-min Rain = 0
KCH1 111633Z 14004KT 09/08 A2991 RMK A01 T00850083  RH  099%=      5-min Rain = 0
KCH1 111634Z 15004KT 08/08 A2991 RMK A01 T00840082  RH  099%=      5-min Rain = 0
KCH1 111635Z 15003KT 08/08 A299 RMK A01 T00840083  RH  099%=      5-min Rain = 0
KCH1 111636Z 14004KT 08/08 A299 RMK A01 T00840083  RH  099%=      5-min Rain = 0
KCH1 111637Z 13004KT 08/08 A299 RMK A01 T00840082  RH  099%=      5-min Rain = 0
KCH1 111638Z 12004KT 08/08 A299 RMK A01 T00840082  RH  099%=      5-min Rain = 0
KCH1 111639Z 10003KT 08/08 A2989 RMK A01 T00840082  RH  099%=      5-min Rain = 0
KCH1 111640Z 09002KT 09/08 A2989 RMK A01 T00850083  RH  099%=      5-min Rain = 0
KCH1 111641Z 09003KT 09/08 A2989 RMK A01 T00850083  RH  099%=      5-min Rain = 0
KCH1 111642Z 11004KT 09/08 A2989 RMK A01 T00850083  RH  099%=      5-min Rain = 0
KCH1 111643Z 11004KT 09/08 A2989 RMK A01 T00850083  RH  099%=      5-min Rain = 0
KCH1 111644Z 11004KT 09/08 A2989 RMK A01 T00850083  RH  099%=      5-min Rain = 0
KCH1 111645Z 10003KT 09/08 A2989 RMK A01 T00860084  RH  099%=      5-min Rain = 0
KCH1 111646Z 07004KT 09/08 A2989 RMK A01 T00860084  RH  099%=      5-min Rain = 0
KCH1 111647Z 06004KT 09/08 A2988 RMK A01 T00860084  RH  099%=      5-min Rain = 0
KCH1 111648Z 05003KT 09/08 A2988 RMK A01 T00860084  RH  099%=      5-min Rain = 0
KCH1 111649Z 05003KT 09/08 A2988 RMK A01 T00860084  RH  099%=      5-min Rain = 0
KCH1 111650Z 06003KT 09/08 A2988 RMK A01 T00860084  RH  099%=      5-min Rain = 0
KCH1 111651Z 07002KT 09/08 A2988 RMK A01 T00860084  RH  099%=      5-min Rain = 0
KCH1 111652Z 08003KT 09/08 A2988 RMK A01 T00860084  RH  099%=      5-min Rain = 0
KCH1 111653Z 08004KT 09/08 A2988 RMK A01 T00860084  RH  099%=      5-min Rain = 0
KCH1 111654Z 07003KT 09/08 A2988 RMK A01 T00860084  RH  099%=      5-min Rain = 0
KCH1 111655Z 07003KT 09/08 A2988 RMK A01 T00860084  RH  099%=      5-min Rain = 0
KCH1 111656Z 06003KT 09/08 A2988 RMK A01 T00860084  RH  099%=      5-min Rain = 0
KCH1 111657Z 06003KT 09/08 A2988 RMK A01 T00860084  RH  099%=      5-min Rain = 0
KCH1 111658Z 06002KT 09/09 A2988 RMK A01 T00860085  RH  099%=      5-min Rain = 0
KCH1 111659Z 05003KT 09/09 A2988 RMK A01 T00870086  RH  099%=      5-min Rain = 0
KCH1 111700Z 07002KT 09/09 A2988 RMK A01 T00870086  RH  099%=      5-min Rain = 0
KCH1 111701Z 08003KT 09/09 A2988 RMK A01 T00870085  RH  099%=      5-min Rain = 0
KCH1 111702Z 08003KT 09/09 A2988 RMK A01 T00870086  RH  099%=      5-min Rain = 0
KCH1 111703Z 08003KT 09/09 A2988 RMK A01 T00870086  RH  099%=      5-min Rain = 0
KCH1 111704Z 08003KT 09/09 A2988 RMK A01 T00870086  RH  099%=      5-min Rain = 0
KCH1 111705Z 07003KT 09/09 A2988 RMK A01 T00880086  RH  099%=      5-min Rain = 0
KCH1 111706Z 08002KT 09/09 A2988 RMK A01 T00880086  RH  099%=      5-min Rain = 0
KCH1 111707Z 06001KT 09/09 A2988 RMK A01 T00880086  RH  099%=      5-min Rain = 0
KCH1 111708Z 04002KT 09/09 A2988 RMK A01 T00880087  RH  099%=      5-min Rain = 0
KCH1 111709Z 05002KT 09/09 A2988 RMK A01 T00880087  RH  099%=      5-min Rain = 0
KCH1 111710Z 07001KT 09/09 A2988 RMK A01 T00880086  RH  099%=      5-min Rain = 0
KCH1 111711Z 10001KT 09/09 A2988 RMK A01 T00880086  RH  099%=      5-min Rain = 0
KCH1 111712Z 10001KT 09/09 A2988 RMK A01 T00880086  RH  099%=      5-min Rain = 0
KCH1 111713Z 10001KT 09/09 A2988 RMK A01 T00880087  RH  099%=      5-min Rain = 0
KCH1 111714Z 10002KT 09/09 A2988 RMK A01 T00890088  RH  099%=      5-min Rain = 0
KCH1 111715Z 11002KT 09/09 A2988 RMK A01 T00890088  RH  099%=      5-min Rain = 0
KCH1 111716Z 11001KT 09/09 A2988 RMK A01 T00890087  RH  098%=      5-min Rain = 0
KCH1 111717Z 11001KT 09/09 A2988 RMK A01 T00890086  RH  098%=      5-min Rain = 0
KCH1 111718Z 10001KT 09/09 A2988 RMK A01 T00890086  RH  098%=      5-min Rain = 0
KCH1 111719Z 09001KT 09/09 A2988 RMK A01 T00890086  RH  098%=      5-min Rain = 0
KCH1 111720Z 05001KT 09/09 A2988 RMK A01 T00880085  RH  098%=      5-min Rain = 0
KCH1 111721Z 05002KT 09/09 A2987 RMK A01 T00880085  RH  098%=      5-min Rain = 0
KCH1 111722Z 06002KT 09/09 A2987 RMK A01 T00880085  RH  098%=      5-min Rain = 0
KCH1 111723Z 07001KT 09/09 A2987 RMK A01 T00890086  RH  098%=      5-min Rain = 0
KCH1 111724Z 07001KT 09/09 A2987 RMK A01 T00890085  RH  098%=      5-min Rain = 0
KCH1 111725Z 04002KT 09/09 A2987 RMK A01 T00890086  RH  098%=      5-min Rain = 0
KCH1 111726Z 04002KT 09/09 A2987 RMK A01 T00890087  RH  098%=      5-min Rain = 0
KCH1 111727Z 03002KT 09/09 A2987 RMK A01 T00890087  RH  098%=      5-min Rain = 0.01
KCH1 111728Z 03002KT 09/09 A2987 RMK A01 T00890086  RH  098%=      5-min Rain = 0
KCH1 111729Z 01002KT 09/09 A2987 RMK A01 T00890086  RH  098%=      5-min Rain = 0
KCH1 111730Z 02002KT 09/09 A2987 RMK A01 T00890086  RH  098%=      5-min Rain = 0
KCH1 111731Z 02003KT 09/09 A2987 RMK A01 T00890087  RH  098%=      5-min Rain = 0
KCH1 111732Z 03003KT 09/09 A2987 RMK A01 T00900088  RH  099%=      5-min Rain = 0
KCH1 111733Z 04002KT 09/09 A2987 RMK A01 T00900088  RH  099%=      5-min Rain = 0
KCH1 111734Z 03002KT 09/09 A2986 RMK A01 T00900087  RH  098%=      5-min Rain = 0
KCH1 111735Z 03003KT 09/09 A2986 RMK A01 T00910089  RH  099%=      5-min Rain = 0
KCH1 111736Z 04003KT 09/09 A2986 RMK A01 T00910088  RH  099%=      5-min Rain = 0
KCH1 111737Z 04003KT 09/09 A2986 RMK A01 T00900087  RH  098%=      5-min Rain = 0
KCH1 111738Z 04003KT 09/09 A2986 RMK A01 T00900087  RH  098%=      5-min Rain = 0
KCH1 111739Z 03003KT 09/09 A2986 RMK A01 T00890086  RH  098%=      5-min Rain = 0
KCH1 111740Z 04003KT 09/09 A2986 RMK A01 T00890086  RH  098%=      5-min Rain = 0
KCH1 111741Z 04003KT 09/09 A2985 RMK A01 T00900087  RH  098%=      5-min Rain = 0
KCH1 111742Z 04003KT 09/09 A2985 RMK A01 T00900088  RH  099%=      5-min Rain = 0
KCH1 111743Z 03004KT 09/09 A2985 RMK A01 T00910089  RH  099%=      5-min Rain = 0
KCH1 111744Z 03004KT 09/09 A2985 RMK A01 T00910090  RH  099%=      5-min Rain = 0
KCH1 111745Z 03003KT 09/09 A2985 RMK A01 T00910088  RH  099%=      5-min Rain = 0
KCH1 111746Z 01002KT 09/09 A2985 RMK A01 T00910089  RH  099%=      5-min Rain = 0
KCH1 111747Z 01003KT 09/09 A2985 RMK A01 T00910089  RH  099%=      5-min Rain = 0
KCH1 111748Z 01003KT 09/09 A2985 RMK A01 T00920090  RH  099%=      5-min Rain = 0
KCH1 111749Z 01002KT 09/09 A2985 RMK A01 T00920090  RH  099%=      5-min Rain = 0
KCH1 111750Z 02002KT 09/09 A2985 RMK A01 T00920090  RH  099%=      5-min Rain = 0
KCH1 111751Z 01002KT 09/09 A2985 RMK A01 T00920091  RH  099%=      5-min Rain = 0
KCH1 111752Z 02002KT 09/09 A2985 RMK A01 T00920090  RH  099%=      5-min Rain = 0
KCH1 111753Z 03002KT 09/09 A2985 RMK A01 T00920091  RH  099%=      5-min Rain = 0
KCH1 111754Z 03002KT 09/09 A2985 RMK A01 T00920091  RH  099%=      5-min Rain = 0
KCH1 111755Z 02001KT 09/09 A2985 RMK A01 T00920091  RH  099%=      5-min Rain = 0
KCH1 111756Z 03001KT 09/09 A2985 RMK A01 T00920090  RH  099%=      5-min Rain = 0
KCH1 111757Z 04002KT 09/09 A2985 RMK A01 T00920090  RH  099%=      5-min Rain = 0
KCH1 111758Z 04001KT 09/09 A2985 RMK A01 T00920091  RH  099%=      5-min Rain = 0
KCH1 111759Z 05001KT 09/09 A2985 RMK A01 T00920090  RH  099%=      5-min Rain = 0
KCH1 111800Z 06001KT 09/09 A2985 RMK A01 T00920090  RH  099%=      5-min Rain = 0
KCH1 111801Z 07000KT 09/09 A2985 RMK A01 T00920090  RH  099%=      5-min Rain = 0
KCH1 111802Z 00000KT 09/09 A2985 RMK A01 T00920090  RH  099%=      5-min Rain = 0
KCH1 111803Z 00000KT 09/09 A2985 RMK A01 T00920091  RH  099%=      5-min Rain = 0
KCH1 111804Z 00000KT 09/09 A2984 RMK A01 T00920091  RH  099%=      5-min Rain = 0
KCH1 111805Z 00000KT 09/09 A2984 RMK A01 T00930091  RH  099%=      5-min Rain = 0
KCH1 111806Z 00000KT 09/09 A2984 RMK A01 T00920091  RH  099%=      5-min Rain = 0
KCH1 111807Z 00000KT 09/09 A2984 RMK A01 T00920090  RH  099%=      5-min Rain = 0
KCH1 111808Z 00000KT 09/09 A2984 RMK A01 T00920089  RH  098%=      5-min Rain = 0
KCH1 111809Z 31001KT 09/09 A2984 RMK A01 T00910089  RH  098%=      5-min Rain = 0
KCH1 111810Z 32001KT 09/09 A2984 RMK A01 T00910089  RH  098%=      5-min Rain = 0
KCH1 111811Z 32000KT 09/09 A2984 RMK A01 T00920090  RH  098%=      5-min Rain = 0
KCH1 111812Z 00000KT 09/09 A2984 RMK A01 T00920089  RH  098%=      5-min Rain = 0
KCH1 111813Z 26000KT 09/09 A2984 RMK A01 T00920089  RH  098%=      5-min Rain = 0
KCH1 111814Z 26001KT 09/09 A2984 RMK A01 T00920090  RH  098%=      5-min Rain = 0
KCH1 111815Z 26001KT 09/09 A2984 RMK A01 T00930091  RH  099%=      5-min Rain = 0
KCH1 111816Z 29001KT 09/09 A2984 RMK A01 T00940092  RH  099%=      5-min Rain = 0
KCH1 111817Z 28001KT 09/09 A2984 RMK A01 T00930092  RH  099%=      5-min Rain = 0
KCH1 111818Z 28002KT 09/09 A2984 RMK A01 T00940091  RH  099%=      5-min Rain = 0
KCH1 111819Z 27002KT 09/09 A2984 RMK A01 T00930091  RH  098%=      5-min Rain = 0
KCH1 111820Z 27002KT 09/09 A2984 RMK A01 T00930091  RH  099%=      5-min Rain = 0
KCH1 111821Z 25003KT 09/09 A2984 RMK A01 T00930091  RH  098%=      5-min Rain = 0
KCH1 111822Z 24002KT 09/09 A2984 RMK A01 T00930091  RH  098%=      5-min Rain = 0
KCH1 111823Z 24002KT 09/09 A2984 RMK A01 T00920090  RH  098%=      5-min Rain = 0
KCH1 111824Z 21002KT 09/09 A2984 RMK A01 T00920089  RH  098%=      5-min Rain = 0
KCH1 111825Z 21002KT 09/09 A2985 RMK A01 T00920090  RH  099%=      5-min Rain = 0.01
KCH1 111826Z 21002KT 09/09 A2985 RMK A01 T00930091  RH  099%=      5-min Rain = 0
KCH1 111827Z 22003KT 09/09 A2985 RMK A01 T00930091  RH  099%=      5-min Rain = 0
KCH1 111828Z 22002KT 09/09 A2985 RMK A01 T00930091  RH  099%=      5-min Rain = 0
KCH1 111829Z 20003KT 09/09 A2985 RMK A01 T00920090  RH  099%=      5-min Rain = 0
KCH1 111830Z 19002KT 09/09 A2985 RMK A01 T00920090  RH  099%=      5-min Rain = 0
KCH1 111831Z 18004KT 09/09 A2985 RMK A01 T00920090  RH  099%=      5-min Rain = 0
KCH1 111832Z 17004KT 09/09 A2985 RMK A01 T00920090  RH  099%=      5-min Rain = 0
KCH1 111833Z 17004KT 09/09 A2985 RMK A01 T00920090  RH  099%=      5-min Rain = 0
KCH1 111834Z 17006KT 09/09 A2985 RMK A01 T00930092  RH  099%=      5-min Rain = 0
KCH1 111835Z 16006KT 09/09 A2985 RMK A01 T00930092  RH  099%=      5-min Rain = 0
KCH1 111836Z 16006KT 09/09 A2985 RMK A01 T00930092  RH  099%=      5-min Rain = 0
KCH1 111837Z 17008KT 09/09 A2985 RMK A01 T00930092  RH  099%=      5-min Rain = 0
KCH1 111838Z 17009KT 09/09 A2985 RMK A01 T00930092  RH  100%=      5-min Rain = 0.01
KCH1 111839Z 16007KT 09/09 A2985 RMK A01 T00930092  RH  100%=      5-min Rain = 0
KCH1 111840Z 16009KT 09/09 A2985 RMK A01 T00930092  RH  100%=      5-min Rain = 0
KCH1 111841Z 17008KT 09/09 A2985 RMK A01 T00930093  RH  100%=      5-min Rain = 0
KCH1 111842Z 17007KT 09/09 A2985 RMK A01 T00930093  RH  100%=      5-min Rain = 0
KCH1 111843Z 18006KT 09/09 A2985 RMK A01 T00930093  RH  100%=      5-min Rain = 0
KCH1 111844Z 17008KT 09/09 A2985 RMK A01 T00940094  RH  100%=      5-min Rain = 0
KCH1 111845Z 17008KT 09/09 A2985 RMK A01 T00930093  RH  100%=      5-min Rain = 0
KCH1 111846Z 17007KT 09/09 A2985 RMK A01 T00930093  RH  100%=      5-min Rain = 0
KCH1 111847Z 18007KT 09/09 A2985 RMK A01 T00930093  RH  100%=      5-min Rain = 0
KCH1 111848Z 18006KT 09/09 A2985 RMK A01 T00930093  RH  100%=      5-min Rain = 0
KCH1 111849Z 17008KT 09/09 A2985 RMK A01 T00930093  RH  100%=      5-min Rain = 0
KCH1 111850Z 17008KT 09/09 A2985 RMK A01 T00930093  RH  100%=      5-min Rain = 0
KCH1 111851Z 17009KT 09/09 A2985 RMK A01 T00930093  RH  100%=      5-min Rain = 0
KCH1 111852Z 17009KT 09/09 A2985 RMK A01 T00930093  RH  100%=      5-min Rain = 0
KCH1 111853Z 17009KT 09/09 A2985 RMK A01 T00930093  RH  100%=      5-min Rain = 0
KCH1 111854Z 16006KT 09/09 A2985 RMK A01 T00930093  RH  100%=      5-min Rain = 0
KCH1 111855Z 17007KT 09/09 A2985 RMK A01 T00930093  RH  100%=      5-min Rain = 0
KCH1 111856Z 17008KT 09/09 A2985 RMK A01 T00940094  RH  100%=      5-min Rain = 0
KCH1 111857Z 17009KT 09/09 A2984 RMK A01 T00940094  RH  100%=      5-min Rain = 0
KCH1 111858Z 17007KT 09/09 A2984 RMK A01 T00940094  RH  100%=      5-min Rain = 0
KCH1 111859Z 17008KT 09/09 A2984 RMK A01 T00940094  RH  100%=      5-min Rain = 0
KCH1 111900Z 18008KT 09/09 A2984 RMK A01 T00940094  RH  100%=      5-min Rain = 0
KCH1 111901Z 17007KT 09/09 A2984 RMK A01 T00940094  RH  100%=      5-min Rain = 0
KCH1 111902Z 17006KT 09/09 A2984 RMK A01 T00940094  RH  100%=      5-min Rain = 0
KCH1 111903Z 18005KT 09/09 A2984 RMK A01 T00940094  RH  100%=      5-min Rain = 0
KCH1 111904Z 19006KT 09/09 A2984 RMK A01 T00940094  RH  100%=      5-min Rain = 0.01
KCH1 111905Z 18005KT 09/09 A2984 RMK A01 T00940094  RH  100%=      5-min Rain = 0
KCH1 111906Z 16007KT 09/09 A2984 RMK A01 T00940094  RH  100%=      5-min Rain = 0
KCH1 111907Z 16005KT 09/09 A2984 RMK A01 T00940094  RH  100%=      5-min Rain = 0
KCH1 111908Z 16006KT 09/09 A2984 RMK A01 T00940094  RH  100%=      5-min Rain = 0
KCH1 111909Z 18004KT 09/09 A2984 RMK A01 T00940094  RH  100%=      5-min Rain = 0
KCH1 111910Z 18004KT 09/10 A2984 RMK A01 T00940095  RH  100%=      5-min Rain = 0
KCH1 111911Z 17006KT 10/10 A2984 RMK A01 T00950095  RH  100%=      5-min Rain = 0
KCH1 111912Z 17007KT 10/10 A2984 RMK A01 T00950095  RH  100%=      5-min Rain = 0
KCH1 111913Z 18005KT 10/10 A2984 RMK A01 T00950095  RH  100%=      5-min Rain = 0
KCH1 111914Z 18005KT 10/10 A2984 RMK A01 T00950095  RH  100%=      5-min Rain = 0
KCH1 111915Z 17008KT 10/10 A2983 RMK A01 T00950095  RH  100%=      5-min Rain = 0
KCH1 111916Z 17008KT 10/10 A2983 RMK A01 T00950095  RH  100%=      5-min Rain = 0
KCH1 111917Z 18008KT 09/09 A2983 RMK A01 T00940094  RH  100%=      5-min Rain = 0
KCH1 111918Z 17007KT 09/09 A2984 RMK A01 T00940094  RH  100%=      5-min Rain = 0
KCH1 111919Z 17006KT 09/09 A2984 RMK A01 T00940094  RH  100%=      5-min Rain = 0
KCH1 111920Z 17006KT 09/09 A2984 RMK A01 T00940094  RH  100%=      5-min Rain = 0
KCH1 111921Z 17006KT 09/09 A2984 RMK A01 T00940094  RH  100%=      5-min Rain = 0.01
KCH1 111922Z 17009KT 09/09 A2984 RMK A01 T00940094  RH  100%=      5-min Rain = 0
KCH1 111923Z 18006KT 09/09 A2984 RMK A01 T00930093  RH  100%=      5-min Rain = 0
KCH1 111924Z 17006KT 09/09 A2983 RMK A01 T00930093  RH  100%=      5-min Rain = 0
KCH1 111925Z 18006KT 09/09 A2983 RMK A01 T00930093  RH  100%=      5-min Rain = 0
KCH1 111926Z 17005KT 09/09 A2983 RMK A01 T00930093  RH  100%=      5-min Rain = 0
KCH1 111927Z 19006KT 09/09 A2983 RMK A01 T00930093  RH  100%=      5-min Rain = 0.01
KCH1 111928Z 17007KT 09/09 A2983 RMK A01 T00930093  RH  100%=      5-min Rain = 0
KCH1 111929Z 17005KT 09/09 A2983 RMK A01 T00930093  RH  100%=      5-min Rain = 0
KCH1 111930Z 17006KT 09/09 A2983 RMK A01 T00930094  RH  100%=      5-min Rain = 0
KCH1 111931Z 17005KT 09/09 A2983 RMK A01 T00940094  RH  100%=      5-min Rain = 0
KCH1 111932Z 16006KT 09/09 A2983 RMK A01 T00940094  RH  100%=      5-min Rain = 0
KCH1 111933Z 18006KT 09/09 A2983 RMK A01 T00940094  RH  100%=      5-min Rain = 0
KCH1 111934Z 17005KT 09/09 A2983 RMK A01 T00940094  RH  100%=      5-min Rain = 0
KCH1 111935Z 17006KT 09/09 A2983 RMK A01 T00940094  RH  100%=      5-min Rain = 0
KCH1 111936Z 17005KT 10/10 A2982 RMK A01 T00950095  RH  100%=      5-min Rain = 0
KCH1 111937Z 17004KT 10/10 A2982 RMK A01 T00950095  RH  100%=      5-min Rain = 0
KCH1 111938Z 18005KT 10/10 A2982 RMK A01 T00950095  RH  100%=      5-min Rain = 0
KCH1 111939Z 18004KT 10/10 A2982 RMK A01 T00950095  RH  100%=      5-min Rain = 0
KCH1 111940Z 19003KT 10/10 A2982 RMK A01 T00950095  RH  100%=      5-min Rain = 0.01
KCH1 111941Z 18004KT 10/10 A2982 RMK A01 T00950095  RH  100%=      5-min Rain = 0
KCH1 111942Z 18002KT 10/10 A2982 RMK A01 T00950095  RH  100%=      5-min Rain = 0
KCH1 111943Z 17003KT 10/10 A2981 RMK A01 T00950095  RH  100%=      5-min Rain = 0
KCH1 111944Z 16003KT 10/10 A2981 RMK A01 T00950095  RH  100%=      5-min Rain = 0
KCH1 111945Z 17004KT 10/10 A2981 RMK A01 T00950095  RH  100%=      5-min Rain = 0
KCH1 111946Z 18006KT 10/10 A2981 RMK A01 T00950095  RH  100%=      5-min Rain = 0
KCH1 111947Z 19005KT 10/10 A2982 RMK A01 T00950095  RH  100%=      5-min Rain = 0
KCH1 111948Z 17004KT 10/10 A2982 RMK A01 T00950095  RH  100%=      5-min Rain = 0
KCH1 111949Z 17004KT 10/10 A2981 RMK A01 T00960096  RH  100%=      5-min Rain = 0
KCH1 111950Z 18004KT 10/10 A2981 RMK A01 T00960096  RH  100%=      5-min Rain = 0
KCH1 111951Z 17004KT 10/10 A2981 RMK A01 T00960096  RH  100%=      5-min Rain = 0
KCH1 111952Z 17003KT 10/10 A2981 RMK A01 T00960096  RH  100%=      5-min Rain = 0
KCH1 111953Z 18004KT 10/10 A2981 RMK A01 T00960096  RH  100%=      5-min Rain = 0
KCH1 111954Z 18003KT 10/10 A2981 RMK A01 T00960096  RH  100%=      5-min Rain = 0.01
KCH1 111955Z 20003KT 10/10 A2981 RMK A01 T00960096  RH  100%=      5-min Rain = 0
KCH1 111956Z 19002KT 10/10 A2981 RMK A01 T00960097  RH  100%=      5-min Rain = 0
KCH1 111957Z 19003KT 10/10 A2981 RMK A01 T00960096  RH  100%=      5-min Rain = 0
KCH1 111958Z 19005KT 10/10 A2981 RMK A01 T00970097  RH  100%=      5-min Rain = 0
KCH1 111959Z 18003KT 10/10 A2981 RMK A01 T00970097  RH  100%=      5-min Rain = 0
KCH1 112000Z 19006KT 10/10 A2981 RMK A01 T00970097  RH  100%=      5-min Rain = 0
KCH1 112001Z 18003KT 10/10 A2981 RMK A01 T00970097  RH  100%=      5-min Rain = 0
KCH1 112002Z 18004KT 10/10 A2981 RMK A01 T00980098  RH  100%=      5-min Rain = 0
KCH1 112003Z 18004KT 10/10 A2981 RMK A01 T00980098  RH  100%=      5-min Rain = 0
KCH1 112004Z 18005KT 10/10 A2981 RMK A01 T00980098  RH  100%=      5-min Rain = 0
KCH1 112005Z 17005KT 10/10 A2981 RMK A01 T00980099  RH  100%=      5-min Rain = 0
KCH1 112006Z 18006KT 10/10 A2981 RMK A01 T00980098  RH  100%=      5-min Rain = 0
KCH1 112007Z 20006KT 10/10 A2981 RMK A01 T00980099  RH  100%=      5-min Rain = 0
KCH1 112008Z 20004KT 10/10 A2981 RMK A01 T00990099  RH  100%=      5-min Rain = 0
KCH1 112009Z 20005KT 10/10 A2982 RMK A01 T00990099  RH  100%=      5-min Rain = 0.01
KCH1 112010Z 18004KT 10/10 A2982 RMK A01 T00990099  RH  100%=      5-min Rain = 0
KCH1 112011Z 19002KT 10/10 A2982 RMK A01 T00990099  RH  100%=      5-min Rain = 0
KCH1 112012Z 20003KT 10/10 A2982 RMK A01 T00990099  RH  100%=      5-min Rain = 0
KCH1 112013Z 19004KT 10/10 A2981 RMK A01 T01000100  RH  100%=      5-min Rain = 0
KCH1 112014Z 18005KT 10/10 A2981 RMK A01 T01000100  RH  100%=      5-min Rain = 0
KCH1 112015Z 16004KT 10/10 A298 RMK A01 T01000100  RH  100%=      5-min Rain = 0.01
KCH1 112016Z 15006KT 10/10 A298 RMK A01 T01000100  RH  100%=      5-min Rain = 0
KCH1 112017Z 16007KT 10/10 A298 RMK A01 T01000100  RH  100%=      5-min Rain = 0
KCH1 112018Z 16005KT 10/10 A298 RMK A01 T01000100  RH  100%=      5-min Rain = 0
KCH1 112019Z 18006KT 10/10 A298 RMK A01 T01000100  RH  100%=      5-min Rain = 0
KCH1 112020Z 17004KT 10/10 A298 RMK A01 T01000100  RH  100%=      5-min Rain = 0
KCH1 112021Z 19006KT 10/10 A298 RMK A01 T01000100  RH  100%=      5-min Rain = 0
KCH1 112022Z 19003KT 10/10 A298 RMK A01 T01000100  RH  100%=      5-min Rain = 0
KCH1 112023Z 18003KT 10/10 A298 RMK A01 T01010101  RH  100%=      5-min Rain = 0
KCH1 112024Z 20003KT 10/10 A298 RMK A01 T01000101  RH  100%=      5-min Rain = 0
KCH1 112025Z 20003KT 10/10 A298 RMK A01 T01010101  RH  100%=      5-min Rain = 0
KCH1 112026Z 17004KT 10/10 A298 RMK A01 T01010101  RH  100%=      5-min Rain = 0
KCH1 112027Z 16005KT 10/10 A2979 RMK A01 T01010101  RH  100%=      5-min Rain = 0
KCH1 112028Z 17006KT 10/10 A2979 RMK A01 T01020102  RH  100%=      5-min Rain = 0
KCH1 112029Z 16005KT 10/10 A2979 RMK A01 T01020102  RH  100%=      5-min Rain = 0.01
KCH1 112030Z 16006KT 10/10 A2978 RMK A01 T01020102  RH  100%=      5-min Rain = 0
KCH1 112031Z 15006KT 10/10 A2978 RMK A01 T01020102  RH  100%=      5-min Rain = 0
KCH1 112032Z 14007KT 10/10 A2977 RMK A01 T01020102  RH  100%=      5-min Rain = 0
KCH1 112033Z 14008KT 10/10 A2977 RMK A01 T01020102  RH  100%=      5-min Rain = 0
KCH1 112034Z 15008KT 10/10 A2977 RMK A01 T01020102  RH  100%=      5-min Rain = 0
KCH1 112035Z 15009KT 10/10 A2976 RMK A01 T01020102  RH  100%=      5-min Rain = 0
KCH1 112036Z 15009KT 10/10 A2976 RMK A01 T01020102  RH  100%=      5-min Rain = 0
KCH1 112037Z 15010KT 10/10 A2976 RMK A01 T01020102  RH  100%=      5-min Rain = 0
KCH1 112038Z 15010KT 10/10 A2976 RMK A01 T01020102  RH  100%=      5-min Rain = 0
KCH1 112039Z 16013KT 10/10 A2976 RMK A01 T01020102  RH  100%=      5-min Rain = 0
KCH1 112040Z 16012KT 10/10 A2976 RMK A01 T01020102  RH  100%=      5-min Rain = 0
KCH1 112041Z 16010KT 10/10 A2975 RMK A01 T01030103  RH  100%=      5-min Rain = 0
KCH1 112042Z 15011G16KT 10/10 A2975 RMK A01 T01030103  RH  100%=      5-min Rain = 0
KCH1 112043Z 15010KT 10/10 A2974 RMK A01 T01030103  RH  100%=      5-min Rain = 0
KCH1 112044Z 16012KT 10/10 A2974 RMK A01 T01030103  RH  100%=      5-min Rain = 0
KCH1 112045Z 16010KT 10/10 A2974 RMK A01 T01030103  RH  100%=      5-min Rain = 0
KCH1 112046Z 16012KT 10/10 A2973 RMK A01 T01030103  RH  100%=      5-min Rain = 0
KCH1 112047Z 16012KT 10/10 A2973 RMK A01 T01030103  RH  100%=      5-min Rain = 0
KCH1 112048Z 16010KT 10/10 A2974 RMK A01 T01030103  RH  100%=      5-min Rain = 0
KCH1 112049Z 17010KT 10/10 A2974 RMK A01 T01030103  RH  100%=      5-min Rain = 0
KCH1 112050Z 17011KT 10/10 A2974 RMK A01 T01030103  RH  100%=      5-min Rain = 0
KCH1 112051Z 17010KT 10/10 A2974 RMK A01 T01030103  RH  100%=      5-min Rain = 0
KCH1 112052Z 18010KT 10/10 A2974 RMK A01 T01030103  RH  100%=      5-min Rain = 0
KCH1 112053Z 17009KT 10/10 A2974 RMK A01 T01030103  RH  100%=      5-min Rain = 0
KCH1 112054Z 16010KT 10/10 A2973 RMK A01 T01030103  RH  100%=      5-min Rain = 0
KCH1 112055Z 17012KT 10/10 A2973 RMK A01 T01040104  RH  100%=      5-min Rain = 0
KCH1 112056Z 17010KT 10/10 A2973 RMK A01 T01040104  RH  100%=      5-min Rain = 0
KCH1 112057Z 17008G14KT 10/10 A2973 RMK A01 T01040104  RH  100%=      5-min Rain = 0
KCH1 112058Z 17009KT 10/10 A2973 RMK A01 T01040104  RH  100%=      5-min Rain = 0
KCH1 112059Z 16009KT 10/10 A2974 RMK A01 T01040104  RH  100%=      5-min Rain = 0
KCH1 112100Z 17010KT 10/10 A2974 RMK A01 T01040104  RH  100%=      5-min Rain = 0
KCH1 112101Z 18009KT 10/10 A2975 RMK A01 T01040104  RH  100%=      5-min Rain = 0
KCH1 112102Z 19009KT 10/10 A2975 RMK A01 T01040104  RH  100%=      5-min Rain = 0
KCH1 112103Z 19004KT 10/10 A2975 RMK A01 T01040104  RH  100%=      5-min Rain = 0
KCH1 112104Z 21004KT 10/10 A2975 RMK A01 T01040104  RH  100%=      5-min Rain = 0
KCH1 112105Z 20004KT 11/11 A2975 RMK A01 T01050105  RH  100%=      5-min Rain = 0
KCH1 112106Z 19005KT 11/11 A2975 RMK A01 T01050105  RH  100%=      5-min Rain = 0
KCH1 112107Z 19006KT 11/11 A2975 RMK A01 T01060106  RH  100%=      5-min Rain = 0
KCH1 112108Z 18005KT 11/11 A2975 RMK A01 T01060106  RH  100%=      5-min Rain = 0
KCH1 112109Z 19005KT 11/11 A2975 RMK A01 T01060106  RH  100%=      5-min Rain = 0
KCH1 112110Z 17004KT 11/11 A2975 RMK A01 T01060106  RH  100%=      5-min Rain = 0
KCH1 112111Z 19006KT 11/11 A2975 RMK A01 T01070107  RH  100%=      5-min Rain = 0
KCH1 112112Z 17005KT 11/11 A2975 RMK A01 T01080108  RH  100%=      5-min Rain = 0
KCH1 112113Z 17004KT 11/11 A2975 RMK A01 T01080108  RH  100%=      5-min Rain = 0
KCH1 112114Z 18005KT 11/11 A2975 RMK A01 T01090109  RH  100%=      5-min Rain = 0
KCH1 112115Z 18006KT 11/11 A2975 RMK A01 T01090109  RH  100%=      5-min Rain = 0
KCH1 112116Z 18006KT 11/11 A2975 RMK A01 T01090109  RH  100%=      5-min Rain = 0
KCH1 112117Z 19004KT 11/11 A2975 RMK A01 T01080108  RH  100%=      5-min Rain = 0
KCH1 112118Z 18003KT 11/11 A2975 RMK A01 T01080108  RH  100%=      5-min Rain = 0
KCH1 112119Z 18003KT 11/11 A2975 RMK A01 T01080109  RH  100%=      5-min Rain = 0
KCH1 112120Z 17004KT 11/11 A2974 RMK A01 T01100110  RH  100%=      5-min Rain = 0
KCH1 112121Z 16005KT 11/11 A2974 RMK A01 T01100110  RH  100%=      5-min Rain = 0
KCH1 112122Z 16005KT 11/11 A2974 RMK A01 T01090110  RH  100%=      5-min Rain = 0
KCH1 112123Z 16004KT 11/11 A2974 RMK A01 T01100110  RH  100%=      5-min Rain = 0
KCH1 112124Z 17004KT 11/11 A2974 RMK A01 T01100110  RH  100%=      5-min Rain = 0
KCH1 112125Z 17004KT 11/11 A2974 RMK A01 T01090110  RH  100%=      5-min Rain = 0
KCH1 112126Z 16004KT 11/11 A2974 RMK A01 T01100110  RH  100%=      5-min Rain = 0
KCH1 112127Z 15003KT 11/11 A2974 RMK A01 T01100110  RH  100%=      5-min Rain = 0
KCH1 112128Z 17004KT 11/11 A2974 RMK A01 T01110111  RH  100%=      5-min Rain = 0
KCH1 112129Z 13003KT 11/11 A2974 RMK A01 T01110112  RH  100%=      5-min Rain = 0
KCH1 112130Z 13002KT 11/11 A2974 RMK A01 T01120112  RH  100%=      5-min Rain = 0
KCH1 112131Z 15003KT 11/11 A2974 RMK A01 T01120112  RH  100%=      5-min Rain = 0
KCH1 112132Z 14003KT 11/11 A2974 RMK A01 T01120112  RH  100%=      5-min Rain = 0
KCH1 112133Z 15005KT 11/11 A2974 RMK A01 T01120111  RH  100%=      5-min Rain = 0
KCH1 112134Z 15004KT 11/11 A2974 RMK A01 T01120111  RH  099%=      5-min Rain = 0
KCH1 112135Z 15004KT 11/11 A2974 RMK A01 T01110110  RH  099%=      5-min Rain = 0
KCH1 112136Z 15005KT 11/11 A2974 RMK A01 T01120110  RH  099%=      5-min Rain = 0
KCH1 112137Z 14005KT 11/11 A2974 RMK A01 T01120110  RH  099%=      5-min Rain = 0
KCH1 112138Z 15006KT 11/11 A2974 RMK A01 T01110110  RH  099%=      5-min Rain = 0
KCH1 112139Z 14007KT 11/11 A2974 RMK A01 T01110110  RH  099%=      5-min Rain = 0
KCH1 112140Z 15006KT 11/11 A2974 RMK A01 T01110110  RH  099%=      5-min Rain = 0
KCH1 112141Z 15004KT 11/11 A2974 RMK A01 T01110109  RH  099%=      5-min Rain = 0
KCH1 112142Z 13004KT 11/11 A2974 RMK A01 T01110110  RH  099%=      5-min Rain = 0
KCH1 112143Z 13003KT 11/11 A2974 RMK A01 T01110109  RH  099%=      5-min Rain = 0
KCH1 112144Z 11004KT 11/11 A2974 RMK A01 T01110109  RH  099%=      5-min Rain = 0
KCH1 112145Z 11004KT 11/11 A2974 RMK A01 T01110109  RH  099%=      5-min Rain = 0
KCH1 112146Z 09004KT 11/11 A2975 RMK A01 T01100108  RH  099%=      5-min Rain = 0
KCH1 112147Z 09003KT 11/11 A2975 RMK A01 T01100108  RH  099%=      5-min Rain = 0
KCH1 112148Z 08002KT 11/11 A2975 RMK A01 T01090108  RH  099%=      5-min Rain = 0
KCH1 112149Z 05002KT 11/11 A2975 RMK A01 T01090107  RH  099%=      5-min Rain = 0
KCH1 112150Z 06003KT 11/11 A2975 RMK A01 T01090108  RH  099%=      5-min Rain = 0
KCH1 112151Z 07003KT 11/11 A2975 RMK A01 T01090108  RH  099%=      5-min Rain = 0
KCH1 112152Z 07003KT 11/11 A2975 RMK A01 T01090108  RH  099%=      5-min Rain = 0
KCH1 112153Z 09004KT 11/11 A2975 RMK A01 T01090107  RH  099%=      5-min Rain = 0
KCH1 112154Z 09004KT 11/11 A2975 RMK A01 T01090108  RH  099%=      5-min Rain = 0
KCH1 112155Z 09004KT 11/11 A2975 RMK A01 T01090107  RH  099%=      5-min Rain = 0
KCH1 112156Z 10004KT 11/11 A2975 RMK A01 T01090107  RH  099%=      5-min Rain = 0
KCH1 112157Z 08003KT 11/11 A2975 RMK A01 T01090108  RH  099%=      5-min Rain = 0
KCH1 112158Z 08004KT 11/11 A2975 RMK A01 T01090108  RH  099%=      5-min Rain = 0
KCH1 112159Z 08004KT 11/11 A2975 RMK A01 T01090108  RH  099%=      5-min Rain = 0
KCH1 112200Z 09004KT 11/11 A2975 RMK A01 T01090108  RH  099%=      5-min Rain = 0
KCH1 112201Z 09003KT 11/11 A2975 RMK A01 T01090108  RH  099%=      5-min Rain = 0
KCH1 112202Z 09004KT 11/11 A2975 RMK A01 T01080107  RH  099%=      5-min Rain = 0
KCH1 112203Z 09004KT 11/11 A2975 RMK A01 T01090108  RH  099%=      5-min Rain = 0
KCH1 112204Z 09004KT 11/11 A2975 RMK A01 T01090108  RH  099%=      5-min Rain = 0
KCH1 112205Z 10005KT 11/11 A2975 RMK A01 T01100109  RH  099%=      5-min Rain = 0
KCH1 112206Z 10004KT 11/11 A2975 RMK A01 T01100110  RH  100%=      5-min Rain = 0
KCH1 112207Z 10004KT 11/11 A2975 RMK A01 T01100109  RH  099%=      5-min Rain = 0
KCH1 112208Z 10004KT 11/11 A2974 RMK A01 T01100109  RH  099%=      5-min Rain = 0
KCH1 112209Z 11005KT 11/11 A2974 RMK A01 T01100109  RH  099%=      5-min Rain = 0
KCH1 112210Z 11004KT 11/11 A2974 RMK A01 T01100109  RH  099%=      5-min Rain = 0
KCH1 112211Z 11004KT 11/11 A2974 RMK A01 T01100109  RH  099%=      5-min Rain = 0
KCH1 112212Z 11005KT 11/11 A2974 RMK A01 T01110109  RH  099%=      5-min Rain = 0
KCH1 112213Z 12005KT 11/11 A2974 RMK A01 T01110109  RH  099%=      5-min Rain = 0
KCH1 112214Z 12004KT 11/11 A2974 RMK A01 T01110109  RH  098%=      5-min Rain = 0
KCH1 112215Z 12004KT 11/11 A2974 RMK A01 T01110108  RH  098%=      5-min Rain = 0
KCH1 112216Z 13004KT 11/11 A2974 RMK A01 T01120109  RH  098%=      5-min Rain = 0
KCH1 112217Z 12004KT 11/11 A2974 RMK A01 T01120109  RH  098%=      5-min Rain = 0
KCH1 112218Z 13004KT 11/11 A2974 RMK A01 T01120109  RH  098%=      5-min Rain = 0
KCH1 112219Z 13004KT 11/11 A2974 RMK A01 T01120109  RH  098%=      5-min Rain = 0
KCH1 112220Z 13003KT 11/11 A2974 RMK A01 T01120109  RH  098%=      5-min Rain = 0
KCH1 112221Z 13003KT 11/11 A2974 RMK A01 T01130109  RH  098%=      5-min Rain = 0
KCH1 112222Z 13005KT 11/11 A2974 RMK A01 T01130109  RH  098%=      5-min Rain = 0
KCH1 112223Z 14005KT 11/11 A2974 RMK A01 T01130110  RH  098%=      5-min Rain = 0
KCH1 112224Z 14006KT 11/11 A2974 RMK A01 T01130110  RH  098%=      5-min Rain = 0
KCH1 112225Z 14005KT 11/11 A2974 RMK A01 T01130110  RH  098%=      5-min Rain = 0
KCH1 112226Z 15004KT 11/11 A2974 RMK A01 T01140111  RH  098%=      5-min Rain = 0
KCH1 112227Z 14003KT 11/11 A2974 RMK A01 T01140110  RH  098%=      5-min Rain = 0
KCH1 112228Z 15003KT 11/11 A2974 RMK A01 T01140111  RH  098%=      5-min Rain = 0
KCH1 112229Z 14004KT 12/11 A2974 RMK A01 T01150112  RH  098%=      5-min Rain = 0
KCH1 112230Z 15004KT 12/11 A2974 RMK A01 T01150112  RH  098%=      5-min Rain = 0
KCH1 112231Z 15003KT 12/11 A2974 RMK A01 T01150112  RH  098%=      5-min Rain = 0
KCH1 112232Z 14003KT 12/11 A2974 RMK A01 T01150112  RH  098%=      5-min Rain = 0
KCH1 112233Z 14004KT 12/11 A2974 RMK A01 T01160113  RH  098%=      5-min Rain = 0
KCH1 112234Z 15004KT 12/11 A2974 RMK A01 T01160112  RH  098%=      5-min Rain = 0
KCH1 112235Z 14003KT 12/11 A2974 RMK A01 T01160112  RH  097%=      5-min Rain = 0
KCH1 112236Z 16004KT 12/11 A2974 RMK A01 T01170113  RH  098%=      5-min Rain = 0
KCH1 112237Z 15003KT 12/11 A2974 RMK A01 T01170113  RH  097%=      5-min Rain = 0
KCH1 112238Z 17005KT 12/11 A2974 RMK A01 T01180114  RH  097%=      5-min Rain = 0
KCH1 112239Z 18005KT 12/11 A2974 RMK A01 T01190114  RH  097%=      5-min Rain = 0
KCH1 112240Z 19004KT 12/11 A2974 RMK A01 T01190114  RH  096%=      5-min Rain = 0
KCH1 112241Z 19005KT 12/11 A2974 RMK A01 T01200114  RH  096%=      5-min Rain = 0
KCH1 112242Z 18005KT 12/11 A2974 RMK A01 T01200112  RH  095%=      5-min Rain = 0
KCH1 112243Z 19006KT 12/11 A2974 RMK A01 T01210113  RH  095%=      5-min Rain = 0
KCH1 112244Z 19005KT 12/11 A2974 RMK A01 T01210112  RH  094%=      5-min Rain = 0
KCH1 112245Z 20004KT 12/11 A2973 RMK A01 T01210112  RH  094%=      5-min Rain = 0
KCH1 112246Z 19006KT 12/11 A2974 RMK A01 T01210112  RH  094%=      5-min Rain = 0
KCH1 112247Z 18006KT 12/11 A2974 RMK A01 T01210111  RH  094%=      5-min Rain = 0
KCH1 112248Z 19004KT 12/11 A2974 RMK A01 T01210111  RH  093%=      5-min Rain = 0
KCH1 112249Z 20006KT 12/11 A2974 RMK A01 T01210110  RH  093%=      5-min Rain = 0
KCH1 112250Z 20006KT 12/11 A2975 RMK A01 T01210109  RH  093%=      5-min Rain = 0
KCH1 112251Z 20006KT 12/11 A2975 RMK A01 T01210109  RH  092%=      5-min Rain = 0
KCH1 112252Z 20007KT 12/11 A2975 RMK A01 T01210108  RH  092%=      5-min Rain = 0
KCH1 112253Z 20006KT 12/11 A2975 RMK A01 T01210107  RH  091%=      5-min Rain = 0
KCH1 112254Z 19006KT 12/11 A2975 RMK A01 T01210108  RH  092%=      5-min Rain = 0
KCH1 112255Z 20006KT 12/11 A2975 RMK A01 T01210107  RH  091%=      5-min Rain = 0
KCH1 112256Z 20007KT 12/11 A2975 RMK A01 T01210107  RH  091%=      5-min Rain = 0
KCH1 112257Z 21006KT 12/11 A2975 RMK A01 T01210107  RH  091%=      5-min Rain = 0
KCH1 112258Z 21005KT 12/11 A2975 RMK A01 T01210107  RH  092%=      5-min Rain = 0
KCH1 112259Z 21004KT 12/11 A2975 RMK A01 T01210108  RH  092%=      5-min Rain = 0
KCH1 112300Z 20006KT 12/11 A2975 RMK A01 T01200108  RH  092%=      5-min Rain = 0
KCH1 112301Z 19006KT 12/11 A2975 RMK A01 T01200107  RH  092%=      5-min Rain = 0
KCH1 112302Z 19006KT 12/11 A2975 RMK A01 T01200107  RH  092%=      5-min Rain = 0
KCH1 112303Z 19006KT 12/11 A2975 RMK A01 T01200107  RH  092%=      5-min Rain = 0
KCH1 112304Z 19007KT 12/11 A2975 RMK A01 T01200107  RH  092%=      5-min Rain = 0
KCH1 112305Z 19005KT 12/11 A2974 RMK A01 T01200108  RH  092%=      5-min Rain = 0
KCH1 112306Z 18006KT 12/11 A2974 RMK A01 T01200108  RH  093%=      5-min Rain = 0
KCH1 112307Z 18005KT 12/11 A2974 RMK A01 T01190108  RH  093%=      5-min Rain = 0
KCH1 112308Z 19007KT 12/11 A2974 RMK A01 T01190108  RH  093%=      5-min Rain = 0
KCH1 112309Z 18007KT 12/11 A2974 RMK A01 T01190108  RH  093%=      5-min Rain = 0
KCH1 112310Z 18006KT 12/11 A2973 RMK A01 T01190108  RH  093%=      5-min Rain = 0
KCH1 112311Z 19007KT 12/11 A2974 RMK A01 T01190108  RH  093%=      5-min Rain = 0
KCH1 112312Z 20007KT 12/11 A2974 RMK A01 T01180108  RH  093%=      5-min Rain = 0
KCH1 112313Z 19006KT 12/11 A2974 RMK A01 T01180108  RH  093%=      5-min Rain = 0
KCH1 112314Z 19006KT 12/11 A2974 RMK A01 T01180108  RH  093%=      5-min Rain = 0
KCH1 112315Z 20007KT 12/11 A2974 RMK A01 T01180108  RH  093%=      5-min Rain = 0
KCH1 112316Z 19006KT 12/11 A2974 RMK A01 T01180107  RH  093%=      5-min Rain = 0
KCH1 112317Z 20006KT 12/11 A2974 RMK A01 T01180107  RH  093%=      5-min Rain = 0
KCH1 112318Z 20006KT 12/11 A2974 RMK A01 T01180107  RH  093%=      5-min Rain = 0
KCH1 112319Z 20007KT 12/11 A2974 RMK A01 T01180107  RH  093%=      5-min Rain = 0
KCH1 112320Z 19006KT 12/11 A2974 RMK A01 T01180106  RH  093%=      5-min Rain = 0
KCH1 112321Z 19006KT 12/11 A2974 RMK A01 T01180106  RH  093%=      5-min Rain = 0
KCH1 112322Z 19006KT 12/11 A2974 RMK A01 T01180106  RH  093%=      5-min Rain = 0
KCH1 112323Z 19005KT 12/11 A2975 RMK A01 T01180107  RH  093%=      5-min Rain = 0
KCH1 112324Z 19005KT 12/11 A2975 RMK A01 T01170107  RH  093%=      5-min Rain = 0
KCH1 112325Z 19005KT 12/11 A2975 RMK A01 T01170107  RH  094%=      5-min Rain = 0
KCH1 112326Z 18004KT 12/11 A2975 RMK A01 T01170108  RH  094%=      5-min Rain = 0
KCH1 112327Z 19005KT 12/11 A2975 RMK A01 T01160108  RH  095%=      5-min Rain = 0
KCH1 112328Z 19004KT 12/11 A2975 RMK A01 T01160108  RH  095%=      5-min Rain = 0
KCH1 112329Z 19005KT 12/11 A2975 RMK A01 T01160108  RH  095%=      5-min Rain = 0
KCH1 112330Z 19005KT 12/11 A2975 RMK A01 T01150108  RH  096%=      5-min Rain = 0
KCH1 112331Z 18004KT 12/11 A2975 RMK A01 T01150108  RH  096%=      5-min Rain = 0
KCH1 112332Z 18006KT 11/11 A2975 RMK A01 T01140108  RH  096%=      5-min Rain = 0
KCH1 112333Z 18006KT 11/11 A2975 RMK A01 T01140108  RH  096%=      5-min Rain = 0
KCH1 112334Z 18006KT 11/11 A2975 RMK A01 T01130107  RH  096%=      5-min Rain = 0
KCH1 112335Z 18007KT 11/11 A2975 RMK A01 T01130107  RH  096%=      5-min Rain = 0
KCH1 112336Z 18006KT 11/11 A2975 RMK A01 T01130107  RH  096%=      5-min Rain = 0
KCH1 112337Z 18007KT 11/11 A2975 RMK A01 T01120107  RH  096%=      5-min Rain = 0
KCH1 112338Z 18006KT 11/11 A2975 RMK A01 T01120107  RH  096%=      5-min Rain = 0
KCH1 112339Z 18007KT 11/11 A2975 RMK A01 T01120106  RH  096%=      5-min Rain = 0
KCH1 112340Z 18006KT 11/11 A2975 RMK A01 T01120106  RH  096%=      5-min Rain = 0
KCH1 112341Z 18006KT 11/11 A2975 RMK A01 T01110106  RH  096%=      5-min Rain = 0
KCH1 112342Z 19006KT 11/11 A2975 RMK A01 T01120106  RH  096%=      5-min Rain = 0
KCH1 112343Z 19005KT 11/11 A2975 RMK A01 T01110106  RH  096%=      5-min Rain = 0
KCH1 112344Z 19005KT 11/11 A2975 RMK A01 T01120106  RH  096%=      5-min Rain = 0
KCH1 112345Z 19004KT 11/11 A2975 RMK A01 T01110105  RH  096%=      5-min Rain = 0
KCH1 112346Z 19006KT 11/11 A2975 RMK A01 T01110105  RH  096%=      5-min Rain = 0
KCH1 112347Z 20004KT 11/11 A2975 RMK A01 T01110105  RH  096%=      5-min Rain = 0
KCH1 112348Z 19005KT 11/11 A2975 RMK A01 T01110105  RH  096%=      5-min Rain = 0
KCH1 112349Z 19005KT 11/10 A2975 RMK A01 T01110104  RH  095%=      5-min Rain = 0
KCH1 112350Z 19004KT 11/10 A2976 RMK A01 T01120104  RH  095%=      5-min Rain = 0
KCH1 112351Z 19005KT 11/10 A2976 RMK A01 T01120104  RH  095%=      5-min Rain = 0
KCH1 112352Z 19005KT 11/10 A2976 RMK A01 T01120104  RH  095%=      5-min Rain = 0
KCH1 112353Z 19005KT 11/10 A2976 RMK A01 T01120104  RH  095%=      5-min Rain = 0
KCH1 112354Z 19005KT 11/10 A2976 RMK A01 T01120104  RH  095%=      5-min Rain = 0
KCH1 112355Z 18005KT 11/10 A2976 RMK A01 T01120104  RH  095%=      5-min Rain = 0
KCH1 112356Z 19007KT 11/10 A2976 RMK A01 T01120104  RH  095%=      5-min Rain = 0
KCH1 112357Z 18005KT 11/10 A2975 RMK A01 T01120103  RH  095%=      5-min Rain = 0
KCH1 112358Z 19006KT 11/10 A2976 RMK A01 T01120103  RH  094%=      5-min Rain = 0
KCH1 112359Z 19005KT 11/10 A2976 RMK A01 T01120103  RH  094%=      5-min Rain = 0
KCH1 120000Z 19004KT 11/10 A2976 RMK A01 T01120103  RH  094%=      5-min Rain = 0
KCH1 120001Z 19004KT 11/10 A2976 RMK A01 T01120103  RH  094%=      5-min Rain = 0
KCH1 120002Z 18003KT 11/10 A2975 RMK A01 T01120103  RH  094%=      5-min Rain = 0
KCH1 120003Z 19005KT 11/10 A2975 RMK A01 T01120103  RH  094%=      5-min Rain = 0
KCH1 120004Z 17004KT 11/10 A2975 RMK A01 T01120103  RH  094%=      5-min Rain = 0
KCH1 120005Z 19004KT 11/10 A2975 RMK A01 T01110103  RH  094%=      5-min Rain = 0
KCH1 120006Z 18004KT 11/10 A2976 RMK A01 T01110103  RH  095%=      5-min Rain = 0
KCH1 120007Z 19004KT 11/10 A2976 RMK A01 T01110103  RH  095%=      5-min Rain = 0
KCH1 120008Z 18004KT 11/10 A2976 RMK A01 T01110103  RH  095%=      5-min Rain = 0
KCH1 120009Z 19004KT 11/10 A2975 RMK A01 T01110102  RH  095%=      5-min Rain = 0
KCH1 120010Z 18005KT 11/10 A2976 RMK A01 T01110103  RH  095%=      5-min Rain = 0
KCH1 120011Z 19006KT 11/10 A2976 RMK A01 T01110102  RH  094%=      5-min Rain = 0
KCH1 120012Z 19006KT 11/10 A2976 RMK A01 T01110103  RH  094%=      5-min Rain = 0
KCH1 120013Z 18006KT 11/10 A2976 RMK A01 T01110102  RH  094%=      5-min Rain = 0
KCH1 120014Z 18006KT 11/10 A2976 RMK A01 T01110102  RH  094%=      5-min Rain = 0
KCH1 120015Z 19006KT 11/10 A2976 RMK A01 T01110102  RH  094%=      5-min Rain = 0
KCH1 120016Z 19006KT 11/10 A2976 RMK A01 T01110102  RH  094%=      5-min Rain = 0
KCH1 120017Z 18005KT 11/10 A2976 RMK A01 T01110102  RH  094%=      5-min Rain = 0
KCH1 120018Z 19006KT 11/10 A2976 RMK A01 T01110102  RH  094%=      5-min Rain = 0
KCH1 120019Z 18006KT 11/10 A2976 RMK A01 T01110102  RH  094%=      5-min Rain = 0
KCH1 120020Z 18006KT 11/10 A2976 RMK A01 T01110102  RH  094%=      5-min Rain = 0
KCH1 120021Z 19006KT 11/10 A2976 RMK A01 T01110102  RH  094%=      5-min Rain = 0
KCH1 120022Z 18005KT 11/10 A2976 RMK A01 T01110102  RH  094%=      5-min Rain = 0
KCH1 120023Z 19004KT 11/10 A2976 RMK A01 T01110102  RH  094%=      5-min Rain = 0
KCH1 120024Z 19005KT 11/10 A2976 RMK A01 T01110102  RH  094%=      5-min Rain = 0
KCH1 120025Z 19005KT 11/10 A2976 RMK A01 T01110102  RH  094%=      5-min Rain = 0
KCH1 120026Z 20007KT 11/10 A2976 RMK A01 T01110102  RH  094%=      5-min Rain = 0
KCH1 120027Z 20007KT 11/10 A2976 RMK A01 T01110102  RH  094%=      5-min Rain = 0
KCH1 120028Z 20006KT 11/10 A2976 RMK A01 T01110101  RH  093%=      5-min Rain = 0
KCH1 120029Z 20007KT 11/10 A2977 RMK A01 T01120101  RH  093%=      5-min Rain = 0
KCH1 120030Z 20006KT 11/10 A2977 RMK A01 T01120101  RH  093%=      5-min Rain = 0
KCH1 120031Z 20007KT 11/10 A2977 RMK A01 T01120100  RH  092%=      5-min Rain = 0
KCH1 120032Z 20006KT 11/10 A2977 RMK A01 T01130100  RH  092%=      5-min Rain = 0
KCH1 120033Z 20006KT 11/10 A2977 RMK A01 T01130100  RH  092%=      5-min Rain = 0
KCH1 120034Z 21007KT 11/10 A2977 RMK A01 T01130100  RH  092%=      5-min Rain = 0
KCH1 120035Z 21006KT 11/10 A2977 RMK A01 T01140100  RH  091%=      5-min Rain = 0
KCH1 120036Z 20006KT 11/10 A2977 RMK A01 T01140100  RH  091%=      5-min Rain = 0
KCH1 120037Z 20006KT 11/10 A2977 RMK A01 T01140100  RH  091%=      5-min Rain = 0
KCH1 120038Z 20009KT 11/10 A2977 RMK A01 T01140100  RH  091%=      5-min Rain = 0
KCH1 120039Z 21008KT 12/10 A2977 RMK A01 T01150100  RH  090%=      5-min Rain = 0
KCH1 120040Z 20007KT 12/10 A2977 RMK A01 T01150099  RH  090%=      5-min Rain = 0
KCH1 120041Z 20007G12KT 12/10 A2977 RMK A01 T01150100  RH  090%=      5-min Rain = 0
KCH1 120042Z 20007KT 12/10 A2977 RMK A01 T01150100  RH  090%=      5-min Rain = 0
KCH1 120043Z 20009KT 12/10 A2977 RMK A01 T01150100  RH  090%=      5-min Rain = 0
KCH1 120044Z 21009KT 12/10 A2977 RMK A01 T01160100  RH  090%=      5-min Rain = 0
KCH1 120045Z 21006KT 12/10 A2978 RMK A01 T01150100  RH  090%=      5-min Rain = 0
KCH1 120046Z 21008KT 12/10 A2978 RMK A01 T01150100  RH  090%=      5-min Rain = 0
KCH1 120047Z 20007KT 12/10 A2978 RMK A01 T01150100  RH  090%=      5-min Rain = 0
KCH1 120048Z 21005KT 12/10 A2978 RMK A01 T01150099  RH  090%=      5-min Rain = 0
KCH1 120049Z 20006KT 11/10 A2978 RMK A01 T01140100  RH  091%=      5-min Rain = 0
KCH1 120050Z 21006KT 11/10 A2978 RMK A01 T01140099  RH  091%=      5-min Rain = 0
KCH1 120051Z 21006KT 11/10 A2978 RMK A01 T01140099  RH  091%=      5-min Rain = 0
KCH1 120052Z 21005KT 11/10 A2978 RMK A01 T01140099  RH  091%=      5-min Rain = 0
KCH1 120053Z 20005KT 11/10 A2978 RMK A01 T01130099  RH  091%=      5-min Rain = 0
KCH1 120054Z 21005KT 11/10 A2978 RMK A01 T01130099  RH  091%=      5-min Rain = 0
KCH1 120055Z 21006KT 11/10 A2978 RMK A01 T01130099  RH  091%=      5-min Rain = 0
KCH1 120056Z 21008KT 11/10 A2978 RMK A01 T01130099  RH  091%=      5-min Rain = 0
KCH1 120057Z 21005KT 11/10 A2978 RMK A01 T01130098  RH  091%=      5-min Rain = 0
KCH1 120058Z 22005KT 11/10 A2978 RMK A01 T01130098  RH  091%=      5-min Rain = 0
KCH1 120059Z 22004KT 11/10 A2978 RMK A01 T01130098  RH  091%=      5-min Rain = 0
KCH1 120100Z 21006KT 11/10 A2978 RMK A01 T01130098  RH  091%=      5-min Rain = 0
KCH1 120101Z 21005KT 11/10 A2979 RMK A01 T01130098  RH  091%=      5-min Rain = 0
KCH1 120102Z 21007KT 11/10 A2979 RMK A01 T01120098  RH  091%=      5-min Rain = 0
KCH1 120103Z 21006KT 11/10 A2979 RMK A01 T01120098  RH  091%=      5-min Rain = 0
KCH1 120104Z 21005KT 11/10 A2979 RMK A01 T01120098  RH  091%=      5-min Rain = 0
KCH1 120105Z 21005KT 11/10 A2979 RMK A01 T01120098  RH  091%=      5-min Rain = 0
KCH1 120106Z 22007KT 11/10 A2979 RMK A01 T01110097  RH  091%=      5-min Rain = 0
KCH1 120107Z 22006KT 11/10 A2979 RMK A01 T01110098  RH  091%=      5-min Rain = 0
KCH1 120108Z 22006KT 11/10 A2979 RMK A01 T01110097  RH  091%=      5-min Rain = 0
KCH1 120109Z 22005KT 11/10 A2979 RMK A01 T01110098  RH  091%=      5-min Rain = 0
KCH1 120110Z 22007KT 11/10 A2979 RMK A01 T01110098  RH  091%=      5-min Rain = 0
KCH1 120111Z 22005KT 11/10 A2979 RMK A01 T01110097  RH  091%=      5-min Rain = 0
KCH1 120112Z 22006KT 11/10 A2979 RMK A01 T01110097  RH  091%=      5-min Rain = 0
KCH1 120113Z 22004KT 11/10 A2979 RMK A01 T01110097  RH  091%=      5-min Rain = 0
KCH1 120114Z 22005KT 11/10 A2979 RMK A01 T01110096  RH  091%=      5-min Rain = 0
KCH1 120115Z 22005KT 11/10 A2979 RMK A01 T01110096  RH  091%=      5-min Rain = 0
KCH1 120116Z 21006KT 11/10 A2979 RMK A01 T01110096  RH  090%=      5-min Rain = 0
KCH1 120117Z 22005KT 11/10 A2979 RMK A01 T01110096  RH  091%=      5-min Rain = 0
KCH1 120118Z 23005KT 11/10 A2979 RMK A01 T01110096  RH  090%=      5-min Rain = 0
KCH1 120119Z 22005KT 11/10 A2979 RMK A01 T01110096  RH  090%=      5-min Rain = 0
KCH1 120120Z 22006KT 11/10 A298 RMK A01 T01110095  RH  090%=      5-min Rain = 0
KCH1 120121Z 23007KT 11/10 A298 RMK A01 T01110095  RH  090%=      5-min Rain = 0
KCH1 120122Z 23009KT 11/10 A298 RMK A01 T01120095  RH  089%=      5-min Rain = 0
KCH1 120123Z 23007KT 11/09 A298 RMK A01 T01130094  RH  088%=      5-min Rain = 0
KCH1 120124Z 22006KT 11/09 A298 RMK A01 T01130094  RH  088%=      5-min Rain = 0
KCH1 120125Z 23005KT 11/09 A298 RMK A01 T01130094  RH  088%=      5-min Rain = 0
KCH1 120126Z 22008KT 11/09 A298 RMK A01 T01130093  RH  088%=      5-min Rain = 0
KCH1 120127Z 22005KT 11/09 A298 RMK A01 T01130093  RH  088%=      5-min Rain = 0
KCH1 120128Z 22006KT 11/09 A298 RMK A01 T01140093  RH  087%=      5-min Rain = 0
KCH1 120129Z 21005KT 11/09 A298 RMK A01 T01140094  RH  087%=      5-min Rain = 0
KCH1 120130Z 22006KT 11/09 A298 RMK A01 T01130093  RH  088%=      5-min Rain = 0
KCH1 120131Z 22005KT 11/09 A298 RMK A01 T01130093  RH  088%=      5-min Rain = 0
KCH1 120132Z 22003KT 11/09 A298 RMK A01 T01130093  RH  088%=      5-min Rain = 0
KCH1 120133Z 23005KT 11/09 A298 RMK A01 T01120092  RH  088%=      5-min Rain = 0
KCH1 120134Z 23004KT 11/09 A298 RMK A01 T01110093  RH  088%=      5-min Rain = 0
KCH1 120135Z 22006KT 11/09 A298 RMK A01 T01110093  RH  088%=      5-min Rain = 0
KCH1 120136Z 22006KT 11/09 A298 RMK A01 T01110093  RH  088%=      5-min Rain = 0
KCH1 120137Z 22007KT 11/09 A298 RMK A01 T01110092  RH  088%=      5-min Rain = 0
KCH1 120138Z 23006KT 11/09 A298 RMK A01 T01110092  RH  088%=      5-min Rain = 0
KCH1 120139Z 22004KT 11/09 A298 RMK A01 T01110092  RH  088%=      5-min Rain = 0
KCH1 120140Z 23006G11KT 11/09 A298 RMK A01 T01110092  RH  088%=      5-min Rain = 0
KCH1 120141Z 23007KT 11/09 A298 RMK A01 T01110092  RH  088%=      5-min Rain = 0
KCH1 120142Z 23006KT 11/09 A298 RMK A01 T01120092  RH  087%=      5-min Rain = 0
KCH1 120143Z 21006KT 11/09 A298 RMK A01 T01120091  RH  087%=      5-min Rain = 0
KCH1 120144Z 21005KT 11/09 A298 RMK A01 T01120091  RH  087%=      5-min Rain = 0
KCH1 120145Z 22006KT 11/09 A298 RMK A01 T01120092  RH  087%=      5-min Rain = 0
KCH1 120146Z 22006KT 11/09 A298 RMK A01 T01120091  RH  087%=      5-min Rain = 0
KCH1 120147Z 22004KT 11/09 A298 RMK A01 T01110091  RH  087%=      5-min Rain = 0
KCH1 120148Z 22004KT 11/09 A298 RMK A01 T01110091  RH  087%=      5-min Rain = 0
KCH1 120149Z 23006KT 11/09 A2981 RMK A01 T01110091  RH  087%=      5-min Rain = 0
KCH1 120150Z 22006KT 11/09 A2981 RMK A01 T01100090  RH  088%=      5-min Rain = 0
KCH1 120151Z 23006KT 11/09 A2981 RMK A01 T01100090  RH  088%=      5-min Rain = 0
KCH1 120152Z 23005KT 11/09 A2981 RMK A01 T01100091  RH  088%=      5-min Rain = 0
KCH1 120153Z 23006KT 11/09 A2981 RMK A01 T01100090  RH  088%=      5-min Rain = 0
KCH1 120154Z 23006KT 11/09 A2981 RMK A01 T01100090  RH  088%=      5-min Rain = 0
KCH1 120155Z 23006KT 11/09 A2981 RMK A01 T01090090  RH  088%=      5-min Rain = 0
KCH1 120156Z 23006KT 11/09 A2981 RMK A01 T01090090  RH  088%=      5-min Rain = 0
KCH1 120157Z 22005KT 11/09 A2981 RMK A01 T01090090  RH  088%=      5-min Rain = 0
KCH1 120158Z 22006KT 11/09 A2981 RMK A01 T01090090  RH  088%=      5-min Rain = 0
KCH1 120159Z 25007KT 11/09 A2982 RMK A01 T01090090  RH  088%=      5-min Rain = 0
KCH1 120200Z 23006G11KT 11/09 A2982 RMK A01 T01090090  RH  088%=      5-min Rain = 0
KCH1 120201Z 23008KT 11/09 A2982 RMK A01 T01090090  RH  088%=      5-min Rain = 0
KCH1 120202Z 23009KT 11/09 A2983 RMK A01 T01100090  RH  088%=      5-min Rain = 0
KCH1 120203Z 23009KT 11/09 A2983 RMK A01 T01100090  RH  088%=      5-min Rain = 0
KCH1 120204Z 24008KT 11/09 A2983 RMK A01 T01100090  RH  088%=      5-min Rain = 0
KCH1 120205Z 25007KT 11/09 A2984 RMK A01 T01090090  RH  088%=      5-min Rain = 0
KCH1 120206Z 27008KT 11/09 A2985 RMK A01 T01090090  RH  088%=      5-min Rain = 0
KCH1 120207Z 26009KT 11/09 A2985 RMK A01 T01090091  RH  089%=      5-min Rain = 0
KCH1 120208Z 25009KT 11/09 A2985 RMK A01 T01090091  RH  089%=      5-min Rain = 0
KCH1 120209Z 25010KT 11/09 A2985 RMK A01 T01080091  RH  089%=      5-min Rain = 0
KCH1 120210Z 27009KT 11/09 A2985 RMK A01 T01080090  RH  089%=      5-min Rain = 0
KCH1 120211Z 27010G15KT 11/09 A2985 RMK A01 T01080090  RH  088%=      5-min Rain = 0
KCH1 120212Z 27011KT 11/09 A2985 RMK A01 T01090089  RH  087%=      5-min Rain = 0
KCH1 120213Z 27012KT 11/09 A2985 RMK A01 T01110089  RH  086%=      5-min Rain = 0
KCH1 120214Z 26010KT 11/09 A2985 RMK A01 T01130089  RH  085%=      5-min Rain = 0
KCH1 120215Z 26011G17KT 11/09 A2986 RMK A01 T01130088  RH  085%=      5-min Rain = 0
KCH1 120216Z 26012G17KT 11/09 A2986 RMK A01 T01140088  RH  084%=      5-min Rain = 0
KCH1 120217Z 26010G16KT 12/09 A2986 RMK A01 T01150087  RH  083%=      5-min Rain = 0
KCH1 120218Z 27011KT 12/09 A2986 RMK A01 T01160087  RH  082%=      5-min Rain = 0
KCH1 120219Z 27009KT 12/09 A2986 RMK A01 T01170087  RH  082%=      5-min Rain = 0
KCH1 120220Z 27010KT 12/09 A2987 RMK A01 T01170086  RH  081%=      5-min Rain = 0
KCH1 120221Z 26009G14KT 12/09 A2987 RMK A01 T01170086  RH  081%=      5-min Rain = 0
KCH1 120222Z 27010KT 12/09 A2987 RMK A01 T01170086  RH  081%=      5-min Rain = 0
KCH1 120223Z 27008G13KT 12/09 A2987 RMK A01 T01170085  RH  081%=      5-min Rain = 0
KCH1 120224Z 27010KT 12/08 A2987 RMK A01 T01170084  RH  081%=      5-min Rain = 0
KCH1 120225Z 27009KT 12/08 A2988 RMK A01 T01160083  RH  080%=      5-min Rain = 0
KCH1 120226Z 27010KT 12/08 A2988 RMK A01 T01160083  RH  080%=      5-min Rain = 0
KCH1 120227Z 27010KT 12/08 A2988 RMK A01 T01160082  RH  080%=      5-min Rain = 0
KCH1 120228Z 27008KT 12/08 A2988 RMK A01 T01170082  RH  079%=      5-min Rain = 0
KCH1 120229Z 28008KT 12/08 A2988 RMK A01 T01160081  RH  079%=      5-min Rain = 0
KCH1 120230Z 28010KT 12/08 A2988 RMK A01 T01160078  RH  077%=      5-min Rain = 0
KCH1 120231Z 28009KT 12/07 A2988 RMK A01 T01160074  RH  075%=      5-min Rain = 0
KCH1 120232Z 28011KT 12/07 A2988 RMK A01 T01170071  RH  073%=      5-min Rain = 0
KCH1 120233Z 29010KT 12/07 A2988 RMK A01 T01170067  RH  072%=      5-min Rain = 0
KCH1 120234Z 29010G15KT 12/06 A2988 RMK A01 T01170063  RH  069%=      5-min Rain = 0
KCH1 120235Z 29009KT 12/06 A2988 RMK A01 T01170062  RH  069%=      5-min Rain = 0
KCH1 120236Z 31008G13KT 12/06 A2988 RMK A01 T01170060  RH  068%=      5-min Rain = 0
KCH1 120237Z 30012G17KT 12/05 A2988 RMK A01 T01160052  RH  064%=      5-min Rain = 0
KCH1 120238Z 30010G17KT 12/04 A2989 RMK A01 T01170044  RH  061%=      5-min Rain = 0
KCH1 120239Z 30012G17KT 12/04 A2988 RMK A01 T01170040  RH  059%=      5-min Rain = 0
KCH1 120240Z 30009KT 12/04 A2989 RMK A01 T01170038  RH  058%=      5-min Rain = 0
KCH1 120241Z 31012KT 12/04 A2989 RMK A01 T01160037  RH  058%=      5-min Rain = 0
KCH1 120242Z 30013G18KT 12/03 A2988 RMK A01 T01150032  RH  056%=      5-min Rain = 0
KCH1 120243Z 30013KT 12/03 A2988 RMK A01 T01160025  RH  054%=      5-min Rain = 0
KCH1 120244Z 30014KT 12/02 A2988 RMK A01 T01160020  RH  052%=      5-min Rain = 0
KCH1 120245Z 30014KT 12/01 A2988 RMK A01 T01160008  RH  047%=      5-min Rain = 0
KCH1 120246Z 31014G19KT 12/01 A2989 RMK A01 T01170008  RH  047%=      5-min Rain = 0
KCH1 120247Z 31014G21KT 12/00 A2989 RMK A01 T01170004  RH  046%=      5-min Rain = 0
KCH1 120248Z 31014G22KT 12/M00 A2989 RMK A01 T01161004  RH  043%=      5-min Rain = 0
KCH1 120249Z 30013KT 12/M00 A2989 RMK A01 T01161004  RH  043%=      5-min Rain = 0
KCH1 120250Z 30012KT 12/M00 A2989 RMK A01 T01161004  RH  044%=      5-min Rain = 0
KCH1 120251Z 30013KT 12/M01 A2989 RMK A01 T01151005  RH  044%=      5-min Rain = 0
KCH1 120252Z 30011KT 11/M01 A2989 RMK A01 T01141007  RH  043%=      5-min Rain = 0
KCH1 120253Z 30012G17KT 11/M01 A2989 RMK A01 T01131008  RH  043%=      5-min Rain = 0
KCH1 120254Z 30011KT 11/M01 A2989 RMK A01 T01121011  RH  042%=      5-min Rain = 0
KCH1 120255Z 29011KT 11/M01 A2989 RMK A01 T01111009  RH  043%=      5-min Rain = 0
KCH1 120256Z 30008G13KT 11/M01 A2989 RMK A01 T01101011  RH  043%=      5-min Rain = 0
KCH1 120257Z 29013KT 11/M01 A2989 RMK A01 T01091013  RH  042%=      5-min Rain = 0
KCH1 120258Z 29011G18KT 11/M02 A2989 RMK A01 T01091017  RH  041%=      5-min Rain = 0
KCH1 120259Z 29011KT 11/M02 A299 RMK A01 T01101019  RH  041%=      5-min Rain = 0
KCH1 120300Z 29011G18KT 11/M01 A299 RMK A01 T01101014  RH  042%=      5-min Rain = 0
KCH1 120301Z 29014KT 11/M02 A299 RMK A01 T01091018  RH  041%=      5-min Rain = 0
KCH1 120302Z 29015G20KT 11/M02 A299 RMK A01 T01091019  RH  041%=      5-min Rain = 0
KCH1 120303Z 30011G16KT 11/M02 A299 RMK A01 T01101020  RH  040%=      5-min Rain = 0
KCH1 120304Z 30012KT 11/M02 A299 RMK A01 T01091017  RH  042%=      5-min Rain = 0
KCH1 120305Z 30015KT 11/M02 A299 RMK A01 T01081020  RH  041%=      5-min Rain = 0
KCH1 120306Z 30013G18KT 11/M02 A299 RMK A01 T01081023  RH  040%=      5-min Rain = 0
KCH1 120307Z 30016G21KT 11/M03 A299 RMK A01 T01091027  RH  039%=      5-min Rain = 0
KCH1 120308Z 29014G19KT 11/M03 A2991 RMK A01 T01101026  RH  038%=      5-min Rain = 0
KCH1 120309Z 29013G18KT 11/M03 A2991 RMK A01 T01101028  RH  038%=      5-min Rain = 0
KCH1 120310Z 30014KT 11/M03 A2991 RMK A01 T01101026  RH  039%=      5-min Rain = 0
KCH1 120311Z 30012G20KT 11/M03 A2991 RMK A01 T01101026  RH  038%=      5-min Rain = 0
KCH1 120312Z 30016KT 11/M03 A2991 RMK A01 T01091029  RH  038%=      5-min Rain = 0
KCH1 120313Z 30013G18KT 11/M03 A2991 RMK A01 T01101032  RH  037%=      5-min Rain = 0
KCH1 120314Z 30015KT 11/M03 A2991 RMK A01 T01101032  RH  037%=      5-min Rain = 0
KCH1 120315Z 30014G20KT 11/M04 A2991 RMK A01 T01101036  RH  036%=      5-min Rain = 0
KCH1 120316Z 30012G17KT 11/M03 A2992 RMK A01 T01101034  RH  036%=      5-min Rain = 0
KCH1 120317Z 30013G18KT 11/M04 A2992 RMK A01 T01101038  RH  035%=      5-min Rain = 0
KCH1 120318Z 30013KT 11/M04 A2992 RMK A01 T01091036  RH  036%=      5-min Rain = 0
KCH1 120319Z 30015G20KT 11/M04 A2992 RMK A01 T01091038  RH  035%=      5-min Rain = 0
KCH1 120320Z 30012G17KT 11/M04 A2992 RMK A01 T01091040  RH  035%=      5-min Rain = 0
KCH1 120321Z 29010KT 11/M04 A2992 RMK A01 T01081039  RH  035%=      5-min Rain = 0
KCH1 120322Z 30009KT 11/M04 A2992 RMK A01 T01071036  RH  036%=      5-min Rain = 0
KCH1 120323Z 30012KT 11/M04 A2992 RMK A01 T01061038  RH  036%=      5-min Rain = 0
KCH1 120324Z 30010G15KT 11/M04 A2992 RMK A01 T01051039  RH  036%=      5-min Rain = 0
KCH1 120325Z 29009KT 11/M04 A2992 RMK A01 T01051041  RH  036%=      5-min Rain = 0
KCH1 120326Z 29009KT 11/M04 A2992 RMK A01 T01051039  RH  036%=      5-min Rain = 0
KCH1 120327Z 29010G15KT 11/M04 A2992 RMK A01 T01051037  RH  037%=      5-min Rain = 0
KCH1 120328Z 29010G15KT 10/M04 A2992 RMK A01 T01041043  RH  035%=      5-min Rain = 0
KCH1 120329Z 29008KT 11/M04 A2992 RMK A01 T01051040  RH  036%=      5-min Rain = 0
KCH1 120330Z 30009KT 10/M04 A2992 RMK A01 T01041037  RH  037%=      5-min Rain = 0
KCH1 120331Z 29010KT 10/M04 A2992 RMK A01 T01041039  RH  037%=      5-min Rain = 0
KCH1 120332Z 29009KT 10/M04 A2992 RMK A01 T01031037  RH  037%=      5-min Rain = 0
KCH1 120333Z 29009KT 10/M04 A2992 RMK A01 T01021036  RH  037%=      5-min Rain = 0
KCH1 120334Z 30008KT 10/M04 A2992 RMK A01 T01011035  RH  038%=      5-min Rain = 0
KCH1 120335Z 29010G15KT 10/M04 A2992 RMK A01 T01011036  RH  038%=      5-min Rain = 0
KCH1 120336Z 30009KT 10/M04 A2992 RMK A01 T01011037  RH  038%=      5-min Rain = 0
KCH1 120337Z 30009KT 10/M04 A2992 RMK A01 T01011037  RH  038%=      5-min Rain = 0
KCH1 120338Z 29007KT 10/M04 A2992 RMK A01 T01011036  RH  038%=      5-min Rain = 0
KCH1 120339Z 29009KT 10/M04 A2992 RMK A01 T01001037  RH  038%=      5-min Rain = 0
KCH1 120340Z 29007KT 10/M04 A2992 RMK A01 T01001038  RH  038%=      5-min Rain = 0
KCH1 120341Z 29009KT 10/M04 A2992 RMK A01 T01001037  RH  038%=      5-min Rain = 0
KCH1 120342Z 29010KT 10/M04 A2992 RMK A01 T01001038  RH  038%=      5-min Rain = 0
KCH1 120343Z 29010KT 10/M04 A2992 RMK A01 T00991042  RH  037%=      5-min Rain = 0
KCH1 120344Z 29010KT 10/M04 A2992 RMK A01 T01011040  RH  037%=      5-min Rain = 0
KCH1 120345Z 29011KT 10/M04 A2992 RMK A01 T01011042  RH  036%=      5-min Rain = 0
KCH1 120346Z 29009KT 10/M04 A2992 RMK A01 T01011040  RH  037%=      5-min Rain = 0
KCH1 120347Z 28009KT 10/M04 A2992 RMK A01 T01001039  RH  037%=      5-min Rain = 0
KCH1 120348Z 29009KT 10/M04 A2992 RMK A01 T00991039  RH  038%=      5-min Rain = 0
KCH1 120349Z 29008KT 10/M04 A2993 RMK A01 T00981038  RH  038%=      5-min Rain = 0
KCH1 120350Z 29009KT 10/M04 A2993 RMK A01 T00981038  RH  038%=      5-min Rain = 0
KCH1 120351Z 29009KT 10/M04 A2993 RMK A01 T00971037  RH  039%=      5-min Rain = 0
KCH1 120352Z 29009KT 10/M04 A2993 RMK A01 T00981042  RH  037%=      5-min Rain = 0
KCH1 120353Z 29009G14KT 10/M04 A2993 RMK A01 T00981039  RH  038%=      5-min Rain = 0
KCH1 120354Z 29009KT 10/M04 A2993 RMK A01 T00981040  RH  038%=      5-min Rain = 0
KCH1 120355Z 28011KT 10/M04 A2993 RMK A01 T00981041  RH  037%=      5-min Rain = 0
KCH1 120356Z 29011KT 10/M04 A2993 RMK A01 T00981044  RH  036%=      5-min Rain = 0
KCH1 120357Z 29011KT 10/M05 A2993 RMK A01 T00991046  RH  036%=      5-min Rain = 0
KCH1 120358Z 29011KT 10/M05 A2993 RMK A01 T00991048  RH  035%=      5-min Rain = 0
KCH1 120359Z 29010KT 10/M05 A2993 RMK A01 T01001047  RH  035%=      5-min Rain = 0
KCH1 120400Z 29010KT 10/M05 A2993 RMK A01 T00991045  RH  036%=      5-min Rain = 0
KCH1 120401Z 29011KT 10/M05 A2993 RMK A01 T00991046  RH  036%=      5-min Rain = 0
KCH1 120402Z 29009KT 10/M05 A2993 RMK A01 T00991046  RH  036%=      5-min Rain = 0
KCH1 120403Z 29009KT 10/M05 A2993 RMK A01 T00991046  RH  036%=      5-min Rain = 0
KCH1 120404Z 29010KT 10/M05 A2993 RMK A01 T00981048  RH  035%=      5-min Rain = 0
KCH1 120405Z 29009KT 10/M05 A2993 RMK A01 T00981047  RH  036%=      5-min Rain = 0
KCH1 120406Z 28009KT 10/M05 A2993 RMK A01 T00981045  RH  036%=      5-min Rain = 0
KCH1 120407Z 29011G16KT 10/M05 A2993 RMK A01 T00971045  RH  036%=      5-min Rain = 0
KCH1 120408Z 28011KT 10/M05 A2993 RMK A01 T00971050  RH  035%=      5-min Rain = 0
KCH1 120409Z 29010KT 10/M05 A2993 RMK A01 T00981049  RH  035%=      5-min Rain = 0
KCH1 120410Z 28010G15KT 10/M05 A2993 RMK A01 T00981048  RH  035%=      5-min Rain = 0
KCH1 120411Z 28009KT 10/M05 A2993 RMK A01 T00971047  RH  036%=      5-min Rain = 0
KCH1 120412Z 28010KT 10/M05 A2993 RMK A01 T00971047  RH  036%=      5-min Rain = 0
KCH1 120413Z 28008KT 10/M05 A2993 RMK A01 T00961046  RH  036%=      5-min Rain = 0
KCH1 120414Z 28010KT 10/M05 A2994 RMK A01 T00961047  RH  036%=      5-min Rain = 0
KCH1 120415Z 28010KT 10/M05 A2994 RMK A01 T00951047  RH  036%=      5-min Rain = 0
KCH1 120416Z 28010KT 10/M05 A2994 RMK A01 T00951048  RH  036%=      5-min Rain = 0
KCH1 120417Z 28010KT 10/M05 A2994 RMK A01 T00951048  RH  036%=      5-min Rain = 0
KCH1 120418Z 28010KT 10/M05 A2994 RMK A01 T00951048  RH  036%=      5-min Rain = 0
KCH1 120419Z 28009KT 09/M05 A2994 RMK A01 T00941046  RH  037%=      5-min Rain = 0
KCH1 120420Z 28009KT 09/M05 A2994 RMK A01 T00941048  RH  036%=      5-min Rain = 0
KCH1 120421Z 28009KT 09/M05 A2994 RMK A01 T00941046  RH  037%=      5-min Rain = 0
KCH1 120422Z 28011KT 09/M05 A2994 RMK A01 T00931050  RH  036%=      5-min Rain = 0
KCH1 120423Z 28010KT 09/M05 A2994 RMK A01 T00941051  RH  036%=      5-min Rain = 0
KCH1 120424Z 28011KT 09/M05 A2994 RMK A01 T00941049  RH  036%=      5-min Rain = 0
KCH1 120425Z 28011KT 09/M05 A2994 RMK A01 T00941049  RH  036%=      5-min Rain = 0
KCH1 120426Z 28011KT 09/M05 A2994 RMK A01 T00931051  RH  036%=      5-min Rain = 0
KCH1 120427Z 28012G17KT 09/M05 A2994 RMK A01 T00941053  RH  035%=      5-min Rain = 0
KCH1 120428Z 28011KT 09/M06 A2994 RMK A01 T00941055  RH  034%=      5-min Rain = 0
KCH1 120429Z 28013KT 10/M06 A2994 RMK A01 T00951055  RH  034%=      5-min Rain = 0
KCH1 120430Z 28013KT 10/M06 A2994 RMK A01 T00951056  RH  034%=      5-min Rain = 0
KCH1 120431Z 28011KT 10/M06 A2994 RMK A01 T00961055  RH  034%=      5-min Rain = 0
KCH1 120432Z 28010KT 10/M05 A2994 RMK A01 T00951053  RH  035%=      5-min Rain = 0
KCH1 120433Z 28011KT 09/M05 A2994 RMK A01 T00941052  RH  035%=      5-min Rain = 0
KCH1 120434Z 28010KT 09/M05 A2994 RMK A01 T00941053  RH  035%=      5-min Rain = 0
KCH1 120435Z 28011G16KT 09/M05 A2994 RMK A01 T00931053  RH  035%=      5-min Rain = 0
KCH1 120436Z 28010KT 09/M05 A2994 RMK A01 T00931052  RH  036%=      5-min Rain = 0
KCH1 120437Z 28010KT 09/M05 A2994 RMK A01 T00931054  RH  035%=      5-min Rain = 0
KCH1 120438Z 29010KT 09/M05 A2995 RMK A01 T00931052  RH  035%=      5-min Rain = 0
KCH1 120439Z 29011G17KT 09/M05 A2995 RMK A01 T00921051  RH  036%=      5-min Rain = 0
KCH1 120440Z 29012KT 09/M05 A2995 RMK A01 T00911053  RH  036%=      5-min Rain = 0
KCH1 120441Z 28010KT 09/M05 A2995 RMK A01 T00911054  RH  035%=      5-min Rain = 0
KCH1 120442Z 28011KT 09/M05 A2995 RMK A01 T00921053  RH  035%=      5-min Rain = 0
KCH1 120443Z 29009KT 09/M05 A2995 RMK A01 T00921053  RH  036%=      5-min Rain = 0
KCH1 120444Z 29010KT 09/M05 A2995 RMK A01 T00911052  RH  036%=      5-min Rain = 0
KCH1 120445Z 29011KT 09/M05 A2995 RMK A01 T00911051  RH  036%=      5-min Rain = 0
KCH1 120446Z 28009KT 09/M05 A2995 RMK A01 T00911053  RH  036%=      5-min Rain = 0
KCH1 120447Z 29009KT 09/M05 A2995 RMK A01 T00911054  RH  035%=      5-min Rain = 0
KCH1 120448Z 29007KT 09/M05 A2996 RMK A01 T00911052  RH  036%=      5-min Rain = 0
KCH1 120449Z 29008KT 09/M05 A2996 RMK A01 T00911051  RH  036%=      5-min Rain = 0
KCH1 120450Z 28009KT 09/M05 A2996 RMK A01 T00901051  RH  037%=      5-min Rain = 0
KCH1 120451Z 28009KT 09/M05 A2996 RMK A01 T00901053  RH  036%=      5-min Rain = 0
KCH1 120452Z 28009KT 09/M05 A2996 RMK A01 T00911051  RH  036%=      5-min Rain = 0
KCH1 120453Z 29010KT 09/M05 A2996 RMK A01 T00911052  RH  036%=      5-min Rain = 0
KCH1 120454Z 29009KT 09/M05 A2996 RMK A01 T00911053  RH  036%=      5-min Rain = 0
KCH1 120455Z 29008KT 09/M05 A2996 RMK A01 T00911053  RH  036%=      5-min Rain = 0
KCH1 120456Z 28009KT 09/M05 A2996 RMK A01 T00911052  RH  036%=      5-min Rain = 0
KCH1 120457Z 28012KT 09/M06 A2995 RMK A01 T00911055  RH  035%=      5-min Rain = 0
KCH1 120458Z 29009KT 09/M06 A2996 RMK A01 T00931056  RH  034%=      5-min Rain = 0
KCH1 120459Z 28011KT 09/M05 A2996 RMK A01 T00941054  RH  035%=      5-min Rain = 0
KCH1 120500Z 28014KT 09/M06 A2995 RMK A01 T00941058  RH  034%=      5-min Rain = 0
KCH1 120501Z 28010KT 10/M06 A2996 RMK A01 T00951058  RH  033%=      5-min Rain = 0
KCH1 120502Z 29013KT 10/M06 A2996 RMK A01 T00951058  RH  034%=      5-min Rain = 0
KCH1 120503Z 28013KT 10/M06 A2996 RMK A01 T00951057  RH  034%=      5-min Rain = 0
KCH1 120504Z 28010KT 10/M06 A2996 RMK A01 T00951057  RH  034%=      5-min Rain = 0
KCH1 120505Z 28010KT 10/M06 A2996 RMK A01 T00951056  RH  034%=      5-min Rain = 0
KCH1 120506Z 28014G20KT 10/M06 A2996 RMK A01 T00951057  RH  034%=      5-min Rain = 0
KCH1 120507Z 28015G21KT 10/M06 A2996 RMK A01 T00961062  RH  032%=      5-min Rain = 0
KCH1 120508Z 28012KT 10/M06 A2996 RMK A01 T00981060  RH  032%=      5-min Rain = 0
KCH1 120509Z 28011KT 10/M06 A2996 RMK A01 T00971059  RH  033%=      5-min Rain = 0
KCH1 120510Z 28013G18KT 10/M06 A2996 RMK A01 T00971058  RH  033%=      5-min Rain = 0
KCH1 120511Z 28012G17KT 10/M06 A2996 RMK A01 T00971059  RH  033%=      5-min Rain = 0
KCH1 120512Z 28013G19KT 10/M06 A2996 RMK A01 T00971060  RH  033%=      5-min Rain = 0
KCH1 120513Z 28013KT 10/M06 A2996 RMK A01 T00971062  RH  032%=      5-min Rain = 0
KCH1 120514Z 29014KT 10/M06 A2996 RMK A01 T00981062  RH  032%=      5-min Rain = 0
KCH1 120515Z 28013KT 10/M06 A2996 RMK A01 T00981061  RH  032%=      5-min Rain = 0
KCH1 120516Z 28012KT 10/M06 A2996 RMK A01 T00981060  RH  032%=      5-min Rain = 0
KCH1 120517Z 28012KT 10/M06 A2996 RMK A01 T00971060  RH  033%=      5-min Rain = 0
KCH1 120518Z 28012KT 10/M06 A2996 RMK A01 T00971060  RH  032%=      5-min Rain = 0
KCH1 120519Z 28011G17KT 10/M06 A2996 RMK A01 T00971058  RH  033%=      5-min Rain = 0
KCH1 120520Z 29011KT 10/M06 A2996 RMK A01 T00961059  RH  033%=      5-min Rain = 0
KCH1 120521Z 28011KT 10/M06 A2997 RMK A01 T00961056  RH  034%=      5-min Rain = 0
KCH1 120522Z 28011KT 10/M06 A2997 RMK A01 T00951058  RH  033%=      5-min Rain = 0
KCH1 120523Z 28013KT 10/M06 A2997 RMK A01 T00951058  RH  033%=      5-min Rain = 0
KCH1 120524Z 28009KT 10/M06 A2997 RMK A01 T00961058  RH  033%=      5-min Rain = 0
KCH1 120525Z 28011G16KT 10/M06 A2997 RMK A01 T00951055  RH  034%=      5-min Rain = 0
KCH1 120526Z 28013KT 10/M06 A2997 RMK A01 T00951058  RH  034%=      5-min Rain = 0
KCH1 120527Z 28010KT 10/M06 A2997 RMK A01 T00951057  RH  034%=      5-min Rain = 0
KCH1 120528Z 28010KT 10/M06 A2997 RMK A01 T00961055  RH  034%=      5-min Rain = 0
KCH1 120529Z 29011KT 10/M06 A2997 RMK A01 T00951056  RH  034%=      5-min Rain = 0
KCH1 120530Z 28011KT 10/M06 A2997 RMK A01 T00951059  RH  033%=      5-min Rain = 0
KCH1 120531Z 29011G17KT 10/M06 A2997 RMK A01 T00951059  RH  033%=      5-min Rain = 0
KCH1 120532Z 29010KT 10/M06 A2997 RMK A01 T00961059  RH  033%=      5-min Rain = 0
KCH1 120533Z 29011KT 10/M06 A2997 RMK A01 T00961058  RH  033%=      5-min Rain = 0
KCH1 120534Z 29011KT 10/M06 A2997 RMK A01 T00951059  RH  033%=      5-min Rain = 0
KCH1 120535Z 28013KT 10/M06 A2997 RMK A01 T00951060  RH  033%=      5-min Rain = 0
KCH1 120536Z 28011KT 10/M06 A2997 RMK A01 T00961059  RH  033%=      5-min Rain = 0
KCH1 120537Z 29016G22KT 10/M06 A2997 RMK A01 T00971060  RH  033%=      5-min Rain = 0
KCH1 120538Z 28014KT 10/M06 A2997 RMK A01 T00981062  RH  032%=      5-min Rain = 0
KCH1 120539Z 28012KT 10/M06 A2997 RMK A01 T00991061  RH  032%=      5-min Rain = 0
KCH1 120540Z 28011KT 10/M06 A2998 RMK A01 T00991059  RH  032%=      5-min Rain = 0
KCH1 120541Z 28012KT 10/M06 A2998 RMK A01 T00981059  RH  033%=      5-min Rain = 0
KCH1 120542Z 28013KT 10/M06 A2998 RMK A01 T00981058  RH  033%=      5-min Rain = 0
KCH1 120543Z 29014KT 10/M06 A2998 RMK A01 T00981060  RH  032%=      5-min Rain = 0
KCH1 120544Z 28014KT 10/M06 A2998 RMK A01 T00991061  RH  032%=      5-min Rain = 0
KCH1 120545Z 28015KT 10/M06 A2998 RMK A01 T01001061  RH  032%=      5-min Rain = 0.01
KCH1 120546Z 28013KT 10/M06 A2998 RMK A01 T01001061  RH  032%=      5-min Rain = 0
KCH1 120547Z 28011KT 10/M06 A2998 RMK A01 T01001060  RH  032%=      5-min Rain = 0
KCH1 120548Z 28012KT 10/M06 A2998 RMK A01 T01001060  RH  032%=      5-min Rain = 0
KCH1 120549Z 28012KT 10/M06 A2998 RMK A01 T00991059  RH  032%=      5-min Rain = 0
KCH1 120550Z 28013G19KT 10/M06 A2998 RMK A01 T00991060  RH  032%=      5-min Rain = 0
KCH1 120551Z 28012KT 10/M06 A2999 RMK A01 T00991062  RH  032%=      5-min Rain = 0
KCH1 120552Z 28011G16KT 10/M06 A2999 RMK A01 T01001061  RH  032%=      5-min Rain = 0
KCH1 120553Z 28012G20KT 10/M06 A2999 RMK A01 T00991059  RH  032%=      5-min Rain = 0
KCH1 120554Z 28010G17KT 10/M06 A2999 RMK A01 T00991061  RH  032%=      5-min Rain = 0
KCH1 120555Z 28013G18KT 10/M06 A2998 RMK A01 T00991059  RH  032%=      5-min Rain = 0
KCH1 120556Z 28014KT 10/M06 A2999 RMK A01 T01001060  RH  032%=      5-min Rain = 0
KCH1 120557Z 28011KT 10/M06 A2999 RMK A01 T00991060  RH  032%=      5-min Rain = 0
KCH1 120558Z 28009KT 10/M06 A2999 RMK A01 T00991058  RH  033%=      5-min Rain = 0
KCH1 120559Z 28011KT 10/M06 A2999 RMK A01 T00991058  RH  033%=      5-min Rain = 0

Page generated in 0.0918 seconds.